<?xml version="1.0" encoding="UTF-8" standalone="no" ?>
<gpx xmlns="http://www.topografix.com/GPX/1/1" xmlns:xsi="http://www.w3.org/2001/XMLSchema-instance" xsi:schemaLocation="http://www.topografix.com/GPX/1/1 http://www.topografix.com/GPX/1/1/gpx.xsd" version="1.1" creator="VisuGPX - https://www.visugpx.com">
  <metadata>
    <name>vallont du Crachet</name>
    <desc><![CDATA[Traversée Vallon du Crachet- Grande combe]]></desc>
  </metadata>
  <trk>
    <name><![CDATA[2014-05-08-02]]></name>
    <trkseg>
      <trkpt lat="44.5317" lon="6.70162">
        <ele>2032.7</ele>
        <time>2014-05-08T05:05:09Z</time>
      </trkpt>
      <trkpt lat="44.5317" lon="6.70162">
        <ele>2032.9</ele>
        <time>2014-05-08T05:05:10Z</time>
      </trkpt>
      <trkpt lat="44.53163" lon="6.70154">
        <ele>2032.8</ele>
        <time>2014-05-08T05:10:51Z</time>
      </trkpt>
      <trkpt lat="44.53157" lon="6.70143">
        <ele>2032.1</ele>
        <time>2014-05-08T05:11:00Z</time>
      </trkpt>
      <trkpt lat="44.53157" lon="6.70129">
        <ele>2035</ele>
        <time>2014-05-08T05:11:25Z</time>
      </trkpt>
      <trkpt lat="44.5315" lon="6.70121">
        <ele>2037.6</ele>
        <time>2014-05-08T05:11:44Z</time>
      </trkpt>
      <trkpt lat="44.53141" lon="6.70117">
        <ele>2037.8</ele>
        <time>2014-05-08T05:11:54Z</time>
      </trkpt>
      <trkpt lat="44.53132" lon="6.70123">
        <ele>2040.1</ele>
        <time>2014-05-08T05:12:06Z</time>
      </trkpt>
      <trkpt lat="44.53123" lon="6.70127">
        <ele>2041.2</ele>
        <time>2014-05-08T05:12:18Z</time>
      </trkpt>
      <trkpt lat="44.53114" lon="6.70121">
        <ele>2044.1</ele>
        <time>2014-05-08T05:12:33Z</time>
      </trkpt>
      <trkpt lat="44.53108" lon="6.70112">
        <ele>2045.5</ele>
        <time>2014-05-08T05:12:44Z</time>
      </trkpt>
      <trkpt lat="44.53102" lon="6.70102">
        <ele>2045.8</ele>
        <time>2014-05-08T05:12:57Z</time>
      </trkpt>
      <trkpt lat="44.53096" lon="6.70091">
        <ele>2049</ele>
        <time>2014-05-08T05:13:08Z</time>
      </trkpt>
      <trkpt lat="44.53091" lon="6.7008">
        <ele>2049.7</ele>
        <time>2014-05-08T05:13:18Z</time>
      </trkpt>
      <trkpt lat="44.53084" lon="6.70071">
        <ele>2050.6</ele>
        <time>2014-05-08T05:13:29Z</time>
      </trkpt>
      <trkpt lat="44.53078" lon="6.70061">
        <ele>2052.3</ele>
        <time>2014-05-08T05:13:43Z</time>
      </trkpt>
      <trkpt lat="44.5307" lon="6.70056">
        <ele>2054.9</ele>
        <time>2014-05-08T05:13:59Z</time>
      </trkpt>
      <trkpt lat="44.53061" lon="6.70052">
        <ele>2055.9</ele>
        <time>2014-05-08T05:14:13Z</time>
      </trkpt>
      <trkpt lat="44.53053" lon="6.70046">
        <ele>2057.4</ele>
        <time>2014-05-08T05:14:23Z</time>
      </trkpt>
      <trkpt lat="44.53047" lon="6.70036">
        <ele>2058.6</ele>
        <time>2014-05-08T05:14:35Z</time>
      </trkpt>
      <trkpt lat="44.53044" lon="6.70022">
        <ele>2059.8</ele>
        <time>2014-05-08T05:14:47Z</time>
      </trkpt>
      <trkpt lat="44.53038" lon="6.70012">
        <ele>2060.3</ele>
        <time>2014-05-08T05:14:58Z</time>
      </trkpt>
      <trkpt lat="44.53031" lon="6.70004">
        <ele>2063.3</ele>
        <time>2014-05-08T05:15:11Z</time>
      </trkpt>
      <trkpt lat="44.5303" lon="6.69992">
        <ele>2066.1</ele>
        <time>2014-05-08T05:15:29Z</time>
      </trkpt>
      <trkpt lat="44.53021" lon="6.69991">
        <ele>2068.7</ele>
        <time>2014-05-08T05:15:45Z</time>
      </trkpt>
      <trkpt lat="44.53012" lon="6.69987">
        <ele>2070.5</ele>
        <time>2014-05-08T05:16:00Z</time>
      </trkpt>
      <trkpt lat="44.53004" lon="6.69979">
        <ele>2073.1</ele>
        <time>2014-05-08T05:16:13Z</time>
      </trkpt>
      <trkpt lat="44.52999" lon="6.69969">
        <ele>2075.3</ele>
        <time>2014-05-08T05:18:27Z</time>
      </trkpt>
      <trkpt lat="44.52992" lon="6.69961">
        <ele>2075.9</ele>
        <time>2014-05-08T05:18:57Z</time>
      </trkpt>
      <trkpt lat="44.52988" lon="6.6995">
        <ele>2078.5</ele>
        <time>2014-05-08T05:19:13Z</time>
      </trkpt>
      <trkpt lat="44.52982" lon="6.69939">
        <ele>2081.4</ele>
        <time>2014-05-08T05:19:30Z</time>
      </trkpt>
      <trkpt lat="44.52978" lon="6.69927">
        <ele>2082.9</ele>
        <time>2014-05-08T05:19:44Z</time>
      </trkpt>
      <trkpt lat="44.52974" lon="6.69916">
        <ele>2084.2</ele>
        <time>2014-05-08T05:19:55Z</time>
      </trkpt>
      <trkpt lat="44.52968" lon="6.69906">
        <ele>2086.5</ele>
        <time>2014-05-08T05:20:03Z</time>
      </trkpt>
      <trkpt lat="44.52963" lon="6.69895">
        <ele>2087.7</ele>
        <time>2014-05-08T05:20:14Z</time>
      </trkpt>
      <trkpt lat="44.52962" lon="6.69882">
        <ele>2089.4</ele>
        <time>2014-05-08T05:20:30Z</time>
      </trkpt>
      <trkpt lat="44.5296" lon="6.69869">
        <ele>2092</ele>
        <time>2014-05-08T05:20:44Z</time>
      </trkpt>
      <trkpt lat="44.52953" lon="6.69844">
        <ele>2097.3</ele>
        <time>2014-05-08T05:21:13Z</time>
      </trkpt>
      <trkpt lat="44.52949" lon="6.69833">
        <ele>2098.4</ele>
        <time>2014-05-08T05:21:26Z</time>
      </trkpt>
      <trkpt lat="44.52945" lon="6.69822">
        <ele>2100.6</ele>
        <time>2014-05-08T05:21:39Z</time>
      </trkpt>
      <trkpt lat="44.52939" lon="6.6981">
        <ele>2102.6</ele>
        <time>2014-05-08T05:21:52Z</time>
      </trkpt>
      <trkpt lat="44.52927" lon="6.6979">
        <ele>2104.6</ele>
        <time>2014-05-08T05:22:15Z</time>
      </trkpt>
      <trkpt lat="44.52921" lon="6.69781">
        <ele>2106.9</ele>
        <time>2014-05-08T05:22:26Z</time>
      </trkpt>
      <trkpt lat="44.52914" lon="6.69772">
        <ele>2108.4</ele>
        <time>2014-05-08T05:22:37Z</time>
      </trkpt>
      <trkpt lat="44.52908" lon="6.69762">
        <ele>2108.2</ele>
        <time>2014-05-08T05:22:48Z</time>
      </trkpt>
      <trkpt lat="44.52901" lon="6.69752">
        <ele>2109.7</ele>
        <time>2014-05-08T05:22:59Z</time>
      </trkpt>
      <trkpt lat="44.52892" lon="6.69729">
        <ele>2112.3</ele>
        <time>2014-05-08T05:23:22Z</time>
      </trkpt>
      <trkpt lat="44.5289" lon="6.69716">
        <ele>2114.5</ele>
        <time>2014-05-08T05:23:36Z</time>
      </trkpt>
      <trkpt lat="44.5289" lon="6.69703">
        <ele>2116.7</ele>
        <time>2014-05-08T05:23:51Z</time>
      </trkpt>
      <trkpt lat="44.52884" lon="6.69691">
        <ele>2119.4</ele>
        <time>2014-05-08T05:24:05Z</time>
      </trkpt>
      <trkpt lat="44.52874" lon="6.69669">
        <ele>2124.3</ele>
        <time>2014-05-08T05:24:31Z</time>
      </trkpt>
      <trkpt lat="44.52869" lon="6.69658">
        <ele>2126.4</ele>
        <time>2014-05-08T05:24:43Z</time>
      </trkpt>
      <trkpt lat="44.52865" lon="6.69647">
        <ele>2129.9</ele>
        <time>2014-05-08T05:24:57Z</time>
      </trkpt>
      <trkpt lat="44.52862" lon="6.69634">
        <ele>2131.4</ele>
        <time>2014-05-08T05:25:12Z</time>
      </trkpt>
      <trkpt lat="44.52852" lon="6.69611">
        <ele>2135.1</ele>
        <time>2014-05-08T05:25:36Z</time>
      </trkpt>
      <trkpt lat="44.52847" lon="6.69599">
        <ele>2137.8</ele>
        <time>2014-05-08T05:25:48Z</time>
      </trkpt>
      <trkpt lat="44.5284" lon="6.6959">
        <ele>2139.5</ele>
        <time>2014-05-08T05:25:59Z</time>
      </trkpt>
      <trkpt lat="44.52832" lon="6.69582">
        <ele>2140.4</ele>
        <time>2014-05-08T05:26:10Z</time>
      </trkpt>
      <trkpt lat="44.52825" lon="6.69572">
        <ele>2143.5</ele>
        <time>2014-05-08T05:26:22Z</time>
      </trkpt>
      <trkpt lat="44.52813" lon="6.69552">
        <ele>2147.2</ele>
        <time>2014-05-08T05:26:46Z</time>
      </trkpt>
      <trkpt lat="44.52806" lon="6.69543">
        <ele>2151</ele>
        <time>2014-05-08T05:26:59Z</time>
      </trkpt>
      <trkpt lat="44.52798" lon="6.69537">
        <ele>2152.4</ele>
        <time>2014-05-08T05:27:10Z</time>
      </trkpt>
      <trkpt lat="44.5279" lon="6.69532">
        <ele>2153.6</ele>
        <time>2014-05-08T05:27:21Z</time>
      </trkpt>
      <trkpt lat="44.52783" lon="6.69525">
        <ele>2155.3</ele>
        <time>2014-05-08T05:27:32Z</time>
      </trkpt>
      <trkpt lat="44.52765" lon="6.69512">
        <ele>2158.2</ele>
        <time>2014-05-08T05:27:53Z</time>
      </trkpt>
      <trkpt lat="44.52758" lon="6.69502">
        <ele>2158.6</ele>
        <time>2014-05-08T05:28:04Z</time>
      </trkpt>
      <trkpt lat="44.52752" lon="6.69493">
        <ele>2160.4</ele>
        <time>2014-05-08T05:28:14Z</time>
      </trkpt>
      <trkpt lat="44.52745" lon="6.69484">
        <ele>2160.3</ele>
        <time>2014-05-08T05:28:23Z</time>
      </trkpt>
      <trkpt lat="44.52738" lon="6.69476">
        <ele>2162</ele>
        <time>2014-05-08T05:28:33Z</time>
      </trkpt>
      <trkpt lat="44.5272" lon="6.69467">
        <ele>2166.2</ele>
        <time>2014-05-08T05:28:54Z</time>
      </trkpt>
      <trkpt lat="44.5271" lon="6.69465">
        <ele>2167.9</ele>
        <time>2014-05-08T05:29:06Z</time>
      </trkpt>
      <trkpt lat="44.52701" lon="6.69462">
        <ele>2169.5</ele>
        <time>2014-05-08T05:29:18Z</time>
      </trkpt>
      <trkpt lat="44.52692" lon="6.69464">
        <ele>2170.9</ele>
        <time>2014-05-08T05:29:34Z</time>
      </trkpt>
      <trkpt lat="44.52673" lon="6.69463">
        <ele>2177.3</ele>
        <time>2014-05-08T05:30:06Z</time>
      </trkpt>
      <trkpt lat="44.52664" lon="6.69465">
        <ele>2179.6</ele>
        <time>2014-05-08T05:30:21Z</time>
      </trkpt>
      <trkpt lat="44.52656" lon="6.69469">
        <ele>2182.4</ele>
        <time>2014-05-08T05:30:37Z</time>
      </trkpt>
      <trkpt lat="44.52637" lon="6.69476">
        <ele>2187.2</ele>
        <time>2014-05-08T05:31:06Z</time>
      </trkpt>
      <trkpt lat="44.52629" lon="6.69481">
        <ele>2189.5</ele>
        <time>2014-05-08T05:31:20Z</time>
      </trkpt>
      <trkpt lat="44.5262" lon="6.69486">
        <ele>2193.4</ele>
        <time>2014-05-08T05:31:35Z</time>
      </trkpt>
      <trkpt lat="44.52611" lon="6.69487">
        <ele>2194.1</ele>
        <time>2014-05-08T05:31:52Z</time>
      </trkpt>
      <trkpt lat="44.52592" lon="6.69485">
        <ele>2200.3</ele>
        <time>2014-05-08T05:32:20Z</time>
      </trkpt>
      <trkpt lat="44.52583" lon="6.69482">
        <ele>2202.2</ele>
        <time>2014-05-08T05:32:32Z</time>
      </trkpt>
      <trkpt lat="44.52574" lon="6.69481">
        <ele>2205.1</ele>
        <time>2014-05-08T05:32:43Z</time>
      </trkpt>
      <trkpt lat="44.52565" lon="6.69477">
        <ele>2207.3</ele>
        <time>2014-05-08T05:32:54Z</time>
      </trkpt>
      <trkpt lat="44.52548" lon="6.69467">
        <ele>2210.3</ele>
        <time>2014-05-08T05:33:15Z</time>
      </trkpt>
      <trkpt lat="44.52541" lon="6.6946">
        <ele>2211.1</ele>
        <time>2014-05-08T05:33:25Z</time>
      </trkpt>
      <trkpt lat="44.52533" lon="6.69452">
        <ele>2214.2</ele>
        <time>2014-05-08T05:33:36Z</time>
      </trkpt>
      <trkpt lat="44.52525" lon="6.69446">
        <ele>2215.8</ele>
        <time>2014-05-08T05:33:47Z</time>
      </trkpt>
      <trkpt lat="44.52517" lon="6.69441">
        <ele>2218.3</ele>
        <time>2014-05-08T05:33:58Z</time>
      </trkpt>
      <trkpt lat="44.52499" lon="6.69435">
        <ele>2220.9</ele>
        <time>2014-05-08T05:34:21Z</time>
      </trkpt>
      <trkpt lat="44.5249" lon="6.69431">
        <ele>2222.7</ele>
        <time>2014-05-08T05:34:32Z</time>
      </trkpt>
      <trkpt lat="44.52481" lon="6.69425">
        <ele>2223.3</ele>
        <time>2014-05-08T05:34:43Z</time>
      </trkpt>
      <trkpt lat="44.52472" lon="6.69421">
        <ele>2223.9</ele>
        <time>2014-05-08T05:34:54Z</time>
      </trkpt>
      <trkpt lat="44.52463" lon="6.69415">
        <ele>2225.7</ele>
        <time>2014-05-08T05:35:04Z</time>
      </trkpt>
      <trkpt lat="44.52446" lon="6.69406">
        <ele>2227.2</ele>
        <time>2014-05-08T05:35:24Z</time>
      </trkpt>
      <trkpt lat="44.52437" lon="6.69401">
        <ele>2229</ele>
        <time>2014-05-08T05:35:34Z</time>
      </trkpt>
      <trkpt lat="44.52429" lon="6.69395">
        <ele>2229.5</ele>
        <time>2014-05-08T05:35:44Z</time>
      </trkpt>
      <trkpt lat="44.52421" lon="6.6939">
        <ele>2231</ele>
        <time>2014-05-08T05:35:54Z</time>
      </trkpt>
      <trkpt lat="44.52412" lon="6.69385">
        <ele>2231.3</ele>
        <time>2014-05-08T05:36:05Z</time>
      </trkpt>
      <trkpt lat="44.52396" lon="6.69372">
        <ele>2233.6</ele>
        <time>2014-05-08T05:36:26Z</time>
      </trkpt>
      <trkpt lat="44.52388" lon="6.69365">
        <ele>2235.6</ele>
        <time>2014-05-08T05:36:36Z</time>
      </trkpt>
      <trkpt lat="44.5238" lon="6.6936">
        <ele>2236.3</ele>
        <time>2014-05-08T05:36:45Z</time>
      </trkpt>
      <trkpt lat="44.52371" lon="6.69356">
        <ele>2237.1</ele>
        <time>2014-05-08T05:36:55Z</time>
      </trkpt>
      <trkpt lat="44.52362" lon="6.69351">
        <ele>2236.7</ele>
        <time>2014-05-08T05:37:06Z</time>
      </trkpt>
      <trkpt lat="44.52346" lon="6.69339">
        <ele>2240.5</ele>
        <time>2014-05-08T05:37:27Z</time>
      </trkpt>
      <trkpt lat="44.52337" lon="6.69334">
        <ele>2241.6</ele>
        <time>2014-05-08T05:37:36Z</time>
      </trkpt>
      <trkpt lat="44.52329" lon="6.69328">
        <ele>2243.4</ele>
        <time>2014-05-08T05:37:46Z</time>
      </trkpt>
      <trkpt lat="44.52321" lon="6.69322">
        <ele>2242.2</ele>
        <time>2014-05-08T05:37:55Z</time>
      </trkpt>
      <trkpt lat="44.52312" lon="6.69318">
        <ele>2242.5</ele>
        <time>2014-05-08T05:38:05Z</time>
      </trkpt>
      <trkpt lat="44.52303" lon="6.69314">
        <ele>2244.5</ele>
        <time>2014-05-08T05:38:16Z</time>
      </trkpt>
      <trkpt lat="44.52284" lon="6.69309">
        <ele>2247.2</ele>
        <time>2014-05-08T05:38:37Z</time>
      </trkpt>
      <trkpt lat="44.52275" lon="6.69309">
        <ele>2249.2</ele>
        <time>2014-05-08T05:38:50Z</time>
      </trkpt>
      <trkpt lat="44.52266" lon="6.69311">
        <ele>2252.2</ele>
        <time>2014-05-08T05:39:03Z</time>
      </trkpt>
      <trkpt lat="44.52257" lon="6.69314">
        <ele>2253.8</ele>
        <time>2014-05-08T05:39:15Z</time>
      </trkpt>
      <trkpt lat="44.52248" lon="6.69313">
        <ele>2255.5</ele>
        <time>2014-05-08T05:39:26Z</time>
      </trkpt>
      <trkpt lat="44.52229" lon="6.69309">
        <ele>2258</ele>
        <time>2014-05-08T05:39:47Z</time>
      </trkpt>
      <trkpt lat="44.52219" lon="6.69308">
        <ele>2259</ele>
        <time>2014-05-08T05:39:59Z</time>
      </trkpt>
      <trkpt lat="44.5221" lon="6.69307">
        <ele>2261.1</ele>
        <time>2014-05-08T05:40:10Z</time>
      </trkpt>
      <trkpt lat="44.52201" lon="6.69303">
        <ele>2262.8</ele>
        <time>2014-05-08T05:40:21Z</time>
      </trkpt>
      <trkpt lat="44.52192" lon="6.693">
        <ele>2264.6</ele>
        <time>2014-05-08T05:40:31Z</time>
      </trkpt>
      <trkpt lat="44.52175" lon="6.69291">
        <ele>2266.3</ele>
        <time>2014-05-08T05:40:51Z</time>
      </trkpt>
      <trkpt lat="44.52166" lon="6.69286">
        <ele>2267.8</ele>
        <time>2014-05-08T05:41:01Z</time>
      </trkpt>
      <trkpt lat="44.52157" lon="6.69281">
        <ele>2269.1</ele>
        <time>2014-05-08T05:41:12Z</time>
      </trkpt>
      <trkpt lat="44.52149" lon="6.69276">
        <ele>2270.2</ele>
        <time>2014-05-08T05:41:22Z</time>
      </trkpt>
      <trkpt lat="44.5214" lon="6.6927">
        <ele>2270.9</ele>
        <time>2014-05-08T05:41:33Z</time>
      </trkpt>
      <trkpt lat="44.52126" lon="6.69255">
        <ele>2273.1</ele>
        <time>2014-05-08T05:43:01Z</time>
      </trkpt>
      <trkpt lat="44.52111" lon="6.69238">
        <ele>2275.3</ele>
        <time>2014-05-08T05:43:21Z</time>
      </trkpt>
      <trkpt lat="44.52104" lon="6.69229">
        <ele>2276.3</ele>
        <time>2014-05-08T05:43:31Z</time>
      </trkpt>
      <trkpt lat="44.52097" lon="6.69222">
        <ele>2276.5</ele>
        <time>2014-05-08T05:43:40Z</time>
      </trkpt>
      <trkpt lat="44.52089" lon="6.69213">
        <ele>2277</ele>
        <time>2014-05-08T05:43:50Z</time>
      </trkpt>
      <trkpt lat="44.52082" lon="6.69204">
        <ele>2278.4</ele>
        <time>2014-05-08T05:44:00Z</time>
      </trkpt>
      <trkpt lat="44.52075" lon="6.69196">
        <ele>2278.3</ele>
        <time>2014-05-08T05:44:11Z</time>
      </trkpt>
      <trkpt lat="44.52059" lon="6.69181">
        <ele>2281.7</ele>
        <time>2014-05-08T05:44:33Z</time>
      </trkpt>
      <trkpt lat="44.52051" lon="6.69175">
        <ele>2282.6</ele>
        <time>2014-05-08T05:44:43Z</time>
      </trkpt>
      <trkpt lat="44.52043" lon="6.69168">
        <ele>2284</ele>
        <time>2014-05-08T05:44:53Z</time>
      </trkpt>
      <trkpt lat="44.52035" lon="6.69161">
        <ele>2285.5</ele>
        <time>2014-05-08T05:45:03Z</time>
      </trkpt>
      <trkpt lat="44.52027" lon="6.69155">
        <ele>2285.3</ele>
        <time>2014-05-08T05:45:12Z</time>
      </trkpt>
      <trkpt lat="44.52012" lon="6.69139">
        <ele>2285.3</ele>
        <time>2014-05-08T05:45:33Z</time>
      </trkpt>
      <trkpt lat="44.52004" lon="6.69131">
        <ele>2287.4</ele>
        <time>2014-05-08T05:45:44Z</time>
      </trkpt>
      <trkpt lat="44.51996" lon="6.69124">
        <ele>2286.7</ele>
        <time>2014-05-08T05:45:54Z</time>
      </trkpt>
      <trkpt lat="44.51989" lon="6.69116">
        <ele>2287.6</ele>
        <time>2014-05-08T05:46:04Z</time>
      </trkpt>
      <trkpt lat="44.51982" lon="6.69108">
        <ele>2289.1</ele>
        <time>2014-05-08T05:46:15Z</time>
      </trkpt>
      <trkpt lat="44.51968" lon="6.6909">
        <ele>2291.4</ele>
        <time>2014-05-08T05:46:39Z</time>
      </trkpt>
      <trkpt lat="44.51962" lon="6.6908">
        <ele>2293.1</ele>
        <time>2014-05-08T05:46:51Z</time>
      </trkpt>
      <trkpt lat="44.51956" lon="6.6907">
        <ele>2296.9</ele>
        <time>2014-05-08T05:47:04Z</time>
      </trkpt>
      <trkpt lat="44.51949" lon="6.69062">
        <ele>2297.3</ele>
        <time>2014-05-08T05:47:17Z</time>
      </trkpt>
      <trkpt lat="44.51936" lon="6.69042">
        <ele>2301.5</ele>
        <time>2014-05-08T05:47:46Z</time>
      </trkpt>
      <trkpt lat="44.5193" lon="6.69033">
        <ele>2304</ele>
        <time>2014-05-08T05:48:00Z</time>
      </trkpt>
      <trkpt lat="44.51923" lon="6.69024">
        <ele>2306.6</ele>
        <time>2014-05-08T05:48:14Z</time>
      </trkpt>
      <trkpt lat="44.51917" lon="6.69014">
        <ele>2309.2</ele>
        <time>2014-05-08T05:48:28Z</time>
      </trkpt>
      <trkpt lat="44.51902" lon="6.68998">
        <ele>2313.2</ele>
        <time>2014-05-08T05:48:56Z</time>
      </trkpt>
      <trkpt lat="44.51895" lon="6.68989">
        <ele>2314.9</ele>
        <time>2014-05-08T05:49:09Z</time>
      </trkpt>
      <trkpt lat="44.51887" lon="6.6898">
        <ele>2317.4</ele>
        <time>2014-05-08T05:49:22Z</time>
      </trkpt>
      <trkpt lat="44.51881" lon="6.68971">
        <ele>2318.8</ele>
        <time>2014-05-08T05:49:34Z</time>
      </trkpt>
      <trkpt lat="44.51866" lon="6.68957">
        <ele>2322</ele>
        <time>2014-05-08T05:49:57Z</time>
      </trkpt>
      <trkpt lat="44.51858" lon="6.6895">
        <ele>2323.1</ele>
        <time>2014-05-08T05:50:09Z</time>
      </trkpt>
      <trkpt lat="44.5185" lon="6.68943">
        <ele>2324.4</ele>
        <time>2014-05-08T05:50:20Z</time>
      </trkpt>
      <trkpt lat="44.51842" lon="6.68935">
        <ele>2326</ele>
        <time>2014-05-08T05:50:31Z</time>
      </trkpt>
      <trkpt lat="44.51835" lon="6.68927">
        <ele>2326</ele>
        <time>2014-05-08T05:50:42Z</time>
      </trkpt>
      <trkpt lat="44.51819" lon="6.68911">
        <ele>2328.7</ele>
        <time>2014-05-08T05:51:06Z</time>
      </trkpt>
      <trkpt lat="44.51812" lon="6.68903">
        <ele>2330.3</ele>
        <time>2014-05-08T05:51:18Z</time>
      </trkpt>
      <trkpt lat="44.51805" lon="6.68896">
        <ele>2331.9</ele>
        <time>2014-05-08T05:51:30Z</time>
      </trkpt>
      <trkpt lat="44.51797" lon="6.68888">
        <ele>2332.8</ele>
        <time>2014-05-08T05:51:42Z</time>
      </trkpt>
      <trkpt lat="44.5179" lon="6.68879">
        <ele>2335</ele>
        <time>2014-05-08T05:51:55Z</time>
      </trkpt>
      <trkpt lat="44.51778" lon="6.68859">
        <ele>2336.2</ele>
        <time>2014-05-08T05:52:19Z</time>
      </trkpt>
      <trkpt lat="44.51771" lon="6.68851">
        <ele>2337.9</ele>
        <time>2014-05-08T05:52:32Z</time>
      </trkpt>
      <trkpt lat="44.51762" lon="6.68845">
        <ele>2340.1</ele>
        <time>2014-05-08T05:52:47Z</time>
      </trkpt>
      <trkpt lat="44.51753" lon="6.6884">
        <ele>2342.3</ele>
        <time>2014-05-08T05:53:01Z</time>
      </trkpt>
      <trkpt lat="44.51736" lon="6.68832">
        <ele>2347.1</ele>
        <time>2014-05-08T05:53:31Z</time>
      </trkpt>
      <trkpt lat="44.51727" lon="6.68828">
        <ele>2351.2</ele>
        <time>2014-05-08T05:53:47Z</time>
      </trkpt>
      <trkpt lat="44.51719" lon="6.68821">
        <ele>2353.3</ele>
        <time>2014-05-08T05:54:03Z</time>
      </trkpt>
      <trkpt lat="44.51706" lon="6.68802">
        <ele>2359.7</ele>
        <time>2014-05-08T05:54:36Z</time>
      </trkpt>
      <trkpt lat="44.51699" lon="6.68794">
        <ele>2360.1</ele>
        <time>2014-05-08T05:55:06Z</time>
      </trkpt>
      <trkpt lat="44.51689" lon="6.68799">
        <ele>2370.1</ele>
        <time>2014-05-08T05:56:04Z</time>
      </trkpt>
      <trkpt lat="44.51685" lon="6.6881">
        <ele>2374</ele>
        <time>2014-05-08T05:56:40Z</time>
      </trkpt>
      <trkpt lat="44.51668" lon="6.68799">
        <ele>2380.2</ele>
        <time>2014-05-08T05:57:18Z</time>
      </trkpt>
      <trkpt lat="44.5166" lon="6.68793">
        <ele>2382.3</ele>
        <time>2014-05-08T05:57:35Z</time>
      </trkpt>
      <trkpt lat="44.51653" lon="6.68786">
        <ele>2385.4</ele>
        <time>2014-05-08T05:57:52Z</time>
      </trkpt>
      <trkpt lat="44.51635" lon="6.68787">
        <ele>2392.3</ele>
        <time>2014-05-08T05:58:37Z</time>
      </trkpt>
      <trkpt lat="44.51627" lon="6.68781">
        <ele>2395.1</ele>
        <time>2014-05-08T05:58:55Z</time>
      </trkpt>
      <trkpt lat="44.51611" lon="6.68779">
        <ele>2402.2</ele>
        <time>2014-05-08T05:59:36Z</time>
      </trkpt>
      <trkpt lat="44.51602" lon="6.68781">
        <ele>2405.8</ele>
        <time>2014-05-08T06:00:00Z</time>
      </trkpt>
      <trkpt lat="44.51586" lon="6.68793">
        <ele>2413.4</ele>
        <time>2014-05-08T06:00:45Z</time>
      </trkpt>
      <trkpt lat="44.51577" lon="6.68789">
        <ele>2416.1</ele>
        <time>2014-05-08T06:01:04Z</time>
      </trkpt>
      <trkpt lat="44.51558" lon="6.68789">
        <ele>2422.9</ele>
        <time>2014-05-08T06:01:45Z</time>
      </trkpt>
      <trkpt lat="44.51549" lon="6.68794">
        <ele>2424.9</ele>
        <time>2014-05-08T06:02:03Z</time>
      </trkpt>
      <trkpt lat="44.5154" lon="6.68798">
        <ele>2429</ele>
        <time>2014-05-08T06:02:21Z</time>
      </trkpt>
      <trkpt lat="44.51522" lon="6.688">
        <ele>2432.5</ele>
        <time>2014-05-08T06:03:28Z</time>
      </trkpt>
      <trkpt lat="44.51498" lon="6.68805">
        <ele>2437.5</ele>
        <time>2014-05-08T06:06:21Z</time>
      </trkpt>
      <trkpt lat="44.5149" lon="6.68811">
        <ele>2439.7</ele>
        <time>2014-05-08T06:06:35Z</time>
      </trkpt>
      <trkpt lat="44.5148" lon="6.68809">
        <ele>2441.4</ele>
        <time>2014-05-08T06:06:50Z</time>
      </trkpt>
      <trkpt lat="44.51471" lon="6.68807">
        <ele>2444.6</ele>
        <time>2014-05-08T06:07:04Z</time>
      </trkpt>
      <trkpt lat="44.51459" lon="6.68827">
        <ele>2449.6</ele>
        <time>2014-05-08T06:07:36Z</time>
      </trkpt>
      <trkpt lat="44.51451" lon="6.68833">
        <ele>2452.2</ele>
        <time>2014-05-08T06:07:54Z</time>
      </trkpt>
      <trkpt lat="44.51446" lon="6.68822">
        <ele>2455.7</ele>
        <time>2014-05-08T06:08:31Z</time>
      </trkpt>
      <trkpt lat="44.51441" lon="6.68798">
        <ele>2459.5</ele>
        <time>2014-05-08T06:09:02Z</time>
      </trkpt>
      <trkpt lat="44.51441" lon="6.68784">
        <ele>2464.1</ele>
        <time>2014-05-08T06:09:18Z</time>
      </trkpt>
      <trkpt lat="44.51442" lon="6.68772">
        <ele>2466.5</ele>
        <time>2014-05-08T06:09:35Z</time>
      </trkpt>
      <trkpt lat="44.5145" lon="6.68748">
        <ele>2471.7</ele>
        <time>2014-05-08T06:10:11Z</time>
      </trkpt>
      <trkpt lat="44.51452" lon="6.68736">
        <ele>2476</ele>
        <time>2014-05-08T06:10:27Z</time>
      </trkpt>
      <trkpt lat="44.51448" lon="6.68724">
        <ele>2477.6</ele>
        <time>2014-05-08T06:10:42Z</time>
      </trkpt>
      <trkpt lat="44.51435" lon="6.68704">
        <ele>2483.3</ele>
        <time>2014-05-08T06:11:09Z</time>
      </trkpt>
      <trkpt lat="44.5143" lon="6.68694">
        <ele>2484.6</ele>
        <time>2014-05-08T06:12:40Z</time>
      </trkpt>
      <trkpt lat="44.51418" lon="6.68672">
        <ele>2485</ele>
        <time>2014-05-08T06:12:59Z</time>
      </trkpt>
      <trkpt lat="44.51412" lon="6.68663">
        <ele>2486.7</ele>
        <time>2014-05-08T06:13:09Z</time>
      </trkpt>
      <trkpt lat="44.51403" lon="6.68656">
        <ele>2486.6</ele>
        <time>2014-05-08T06:13:20Z</time>
      </trkpt>
      <trkpt lat="44.51395" lon="6.6865">
        <ele>2488.1</ele>
        <time>2014-05-08T06:13:34Z</time>
      </trkpt>
      <trkpt lat="44.51386" lon="6.68645">
        <ele>2490.2</ele>
        <time>2014-05-08T06:13:50Z</time>
      </trkpt>
      <trkpt lat="44.51368" lon="6.68635">
        <ele>2495.6</ele>
        <time>2014-05-08T06:14:20Z</time>
      </trkpt>
      <trkpt lat="44.51362" lon="6.68627">
        <ele>2498.3</ele>
        <time>2014-05-08T06:14:32Z</time>
      </trkpt>
      <trkpt lat="44.51357" lon="6.68616">
        <ele>2499.4</ele>
        <time>2014-05-08T06:14:44Z</time>
      </trkpt>
      <trkpt lat="44.51352" lon="6.68604">
        <ele>2500.1</ele>
        <time>2014-05-08T06:14:57Z</time>
      </trkpt>
      <trkpt lat="44.51345" lon="6.6858">
        <ele>2502.7</ele>
        <time>2014-05-08T06:15:23Z</time>
      </trkpt>
      <trkpt lat="44.51342" lon="6.68567">
        <ele>2505.2</ele>
        <time>2014-05-08T06:15:37Z</time>
      </trkpt>
      <trkpt lat="44.51338" lon="6.68556">
        <ele>2507.5</ele>
        <time>2014-05-08T06:15:52Z</time>
      </trkpt>
      <trkpt lat="44.51331" lon="6.68547">
        <ele>2510.7</ele>
        <time>2014-05-08T06:16:07Z</time>
      </trkpt>
      <trkpt lat="44.51318" lon="6.68528">
        <ele>2515.8</ele>
        <time>2014-05-08T06:16:39Z</time>
      </trkpt>
      <trkpt lat="44.5131" lon="6.68523">
        <ele>2517.3</ele>
        <time>2014-05-08T06:16:55Z</time>
      </trkpt>
      <trkpt lat="44.51302" lon="6.68528">
        <ele>2520.3</ele>
        <time>2014-05-08T06:17:13Z</time>
      </trkpt>
      <trkpt lat="44.51286" lon="6.68542">
        <ele>2527.8</ele>
        <time>2014-05-08T06:17:51Z</time>
      </trkpt>
      <trkpt lat="44.51277" lon="6.68545">
        <ele>2531.6</ele>
        <time>2014-05-08T06:18:10Z</time>
      </trkpt>
      <trkpt lat="44.51268" lon="6.68544">
        <ele>2533.6</ele>
        <time>2014-05-08T06:18:29Z</time>
      </trkpt>
      <trkpt lat="44.5125" lon="6.6854">
        <ele>2540.1</ele>
        <time>2014-05-08T06:19:07Z</time>
      </trkpt>
      <trkpt lat="44.51244" lon="6.68529">
        <ele>2543</ele>
        <time>2014-05-08T06:19:27Z</time>
      </trkpt>
      <trkpt lat="44.51245" lon="6.68516">
        <ele>2546.2</ele>
        <time>2014-05-08T06:19:46Z</time>
      </trkpt>
      <trkpt lat="44.51242" lon="6.68491">
        <ele>2552.7</ele>
        <time>2014-05-08T06:20:23Z</time>
      </trkpt>
      <trkpt lat="44.51236" lon="6.68482">
        <ele>2555.5</ele>
        <time>2014-05-08T06:20:40Z</time>
      </trkpt>
      <trkpt lat="44.51233" lon="6.6847">
        <ele>2558.7</ele>
        <time>2014-05-08T06:20:58Z</time>
      </trkpt>
      <trkpt lat="44.51219" lon="6.68465">
        <ele>2566</ele>
        <time>2014-05-08T06:21:53Z</time>
      </trkpt>
      <trkpt lat="44.51216" lon="6.68453">
        <ele>2567.9</ele>
        <time>2014-05-08T06:22:09Z</time>
      </trkpt>
      <trkpt lat="44.51204" lon="6.68432">
        <ele>2573.5</ele>
        <time>2014-05-08T06:22:58Z</time>
      </trkpt>
      <trkpt lat="44.51198" lon="6.68422">
        <ele>2575.1</ele>
        <time>2014-05-08T06:23:12Z</time>
      </trkpt>
      <trkpt lat="44.51186" lon="6.68401">
        <ele>2578.4</ele>
        <time>2014-05-08T06:23:38Z</time>
      </trkpt>
      <trkpt lat="44.51181" lon="6.6839">
        <ele>2579.6</ele>
        <time>2014-05-08T06:23:51Z</time>
      </trkpt>
      <trkpt lat="44.51178" lon="6.68378">
        <ele>2581.3</ele>
        <time>2014-05-08T06:24:06Z</time>
      </trkpt>
      <trkpt lat="44.51176" lon="6.68365">
        <ele>2582.9</ele>
        <time>2014-05-08T06:24:22Z</time>
      </trkpt>
      <trkpt lat="44.51171" lon="6.68339">
        <ele>2587.5</ele>
        <time>2014-05-08T06:24:53Z</time>
      </trkpt>
      <trkpt lat="44.51167" lon="6.68328">
        <ele>2589.3</ele>
        <time>2014-05-08T06:25:07Z</time>
      </trkpt>
      <trkpt lat="44.51163" lon="6.68316">
        <ele>2591.3</ele>
        <time>2014-05-08T06:25:21Z</time>
      </trkpt>
      <trkpt lat="44.5116" lon="6.68304">
        <ele>2593.4</ele>
        <time>2014-05-08T06:25:35Z</time>
      </trkpt>
      <trkpt lat="44.51155" lon="6.68278">
        <ele>2595.4</ele>
        <time>2014-05-08T06:26:02Z</time>
      </trkpt>
      <trkpt lat="44.51152" lon="6.68266">
        <ele>2596.9</ele>
        <time>2014-05-08T06:26:15Z</time>
      </trkpt>
      <trkpt lat="44.51151" lon="6.68253">
        <ele>2598.5</ele>
        <time>2014-05-08T06:26:29Z</time>
      </trkpt>
      <trkpt lat="44.51149" lon="6.68239">
        <ele>2601.2</ele>
        <time>2014-05-08T06:26:43Z</time>
      </trkpt>
      <trkpt lat="44.51147" lon="6.68214">
        <ele>2602.2</ele>
        <time>2014-05-08T06:27:11Z</time>
      </trkpt>
      <trkpt lat="44.51146" lon="6.68201">
        <ele>2605.3</ele>
        <time>2014-05-08T06:27:25Z</time>
      </trkpt>
      <trkpt lat="44.51145" lon="6.68188">
        <ele>2606.6</ele>
        <time>2014-05-08T06:27:39Z</time>
      </trkpt>
      <trkpt lat="44.51144" lon="6.68175">
        <ele>2608.1</ele>
        <time>2014-05-08T06:27:53Z</time>
      </trkpt>
      <trkpt lat="44.51142" lon="6.68149">
        <ele>2610.4</ele>
        <time>2014-05-08T06:28:21Z</time>
      </trkpt>
      <trkpt lat="44.5114" lon="6.68135">
        <ele>2612.4</ele>
        <time>2014-05-08T06:28:36Z</time>
      </trkpt>
      <trkpt lat="44.51139" lon="6.68122">
        <ele>2613.1</ele>
        <time>2014-05-08T06:28:50Z</time>
      </trkpt>
      <trkpt lat="44.51137" lon="6.68109">
        <ele>2614.6</ele>
        <time>2014-05-08T06:29:03Z</time>
      </trkpt>
      <trkpt lat="44.51134" lon="6.68084">
        <ele>2617.7</ele>
        <time>2014-05-08T06:29:29Z</time>
      </trkpt>
      <trkpt lat="44.51135" lon="6.6807">
        <ele>2619.8</ele>
        <time>2014-05-08T06:29:44Z</time>
      </trkpt>
      <trkpt lat="44.51138" lon="6.68058">
        <ele>2622.8</ele>
        <time>2014-05-08T06:30:58Z</time>
      </trkpt>
      <trkpt lat="44.51134" lon="6.68038">
        <ele>2631.4</ele>
        <time>2014-05-08T06:31:43Z</time>
      </trkpt>
      <trkpt lat="44.51133" lon="6.68025">
        <ele>2634.8</ele>
        <time>2014-05-08T06:32:06Z</time>
      </trkpt>
      <trkpt lat="44.51131" lon="6.68001">
        <ele>2642.4</ele>
        <time>2014-05-08T06:32:50Z</time>
      </trkpt>
      <trkpt lat="44.51132" lon="6.67989">
        <ele>2645</ele>
        <time>2014-05-08T06:33:10Z</time>
      </trkpt>
      <trkpt lat="44.51128" lon="6.67964">
        <ele>2652.8</ele>
        <time>2014-05-08T06:33:54Z</time>
      </trkpt>
      <trkpt lat="44.51125" lon="6.67952">
        <ele>2656.1</ele>
        <time>2014-05-08T06:34:16Z</time>
      </trkpt>
      <trkpt lat="44.51129" lon="6.67927">
        <ele>2662.6</ele>
        <time>2014-05-08T06:34:57Z</time>
      </trkpt>
      <trkpt lat="44.51131" lon="6.67914">
        <ele>2665</ele>
        <time>2014-05-08T06:36:09Z</time>
      </trkpt>
      <trkpt lat="44.5113" lon="6.67888">
        <ele>2666.8</ele>
        <time>2014-05-08T06:36:37Z</time>
      </trkpt>
      <trkpt lat="44.51128" lon="6.67874">
        <ele>2669</ele>
        <time>2014-05-08T06:36:50Z</time>
      </trkpt>
      <trkpt lat="44.51128" lon="6.67861">
        <ele>2669.9</ele>
        <time>2014-05-08T06:37:02Z</time>
      </trkpt>
      <trkpt lat="44.51127" lon="6.67848">
        <ele>2670.3</ele>
        <time>2014-05-08T06:37:15Z</time>
      </trkpt>
      <trkpt lat="44.51123" lon="6.67823">
        <ele>2674.2</ele>
        <time>2014-05-08T06:37:45Z</time>
      </trkpt>
      <trkpt lat="44.51115" lon="6.67815">
        <ele>2677.5</ele>
        <time>2014-05-08T06:38:04Z</time>
      </trkpt>
      <trkpt lat="44.51107" lon="6.6781">
        <ele>2679.4</ele>
        <time>2014-05-08T06:38:27Z</time>
      </trkpt>
      <trkpt lat="44.51108" lon="6.67784">
        <ele>2685.6</ele>
        <time>2014-05-08T06:39:03Z</time>
      </trkpt>
      <trkpt lat="44.51111" lon="6.67772">
        <ele>2688.3</ele>
        <time>2014-05-08T06:39:23Z</time>
      </trkpt>
      <trkpt lat="44.51105" lon="6.67763">
        <ele>2692.5</ele>
        <time>2014-05-08T06:39:50Z</time>
      </trkpt>
      <trkpt lat="44.51087" lon="6.67765">
        <ele>2699</ele>
        <time>2014-05-08T06:40:38Z</time>
      </trkpt>
      <trkpt lat="44.51078" lon="6.67769">
        <ele>2702.6</ele>
        <time>2014-05-08T06:41:02Z</time>
      </trkpt>
      <trkpt lat="44.51062" lon="6.67771">
        <ele>2709.7</ele>
        <time>2014-05-08T06:42:05Z</time>
      </trkpt>
      <trkpt lat="44.51057" lon="6.67747">
        <ele>2716.1</ele>
        <time>2014-05-08T06:42:46Z</time>
      </trkpt>
      <trkpt lat="44.51056" lon="6.67734">
        <ele>2719.8</ele>
        <time>2014-05-08T06:43:12Z</time>
      </trkpt>
      <trkpt lat="44.51061" lon="6.6771">
        <ele>2727.7</ele>
        <time>2014-05-08T06:44:11Z</time>
      </trkpt>
      <trkpt lat="44.51066" lon="6.67699">
        <ele>2731.4</ele>
        <time>2014-05-08T06:44:40Z</time>
      </trkpt>
      <trkpt lat="44.51075" lon="6.67676">
        <ele>2738.6</ele>
        <time>2014-05-08T06:45:24Z</time>
      </trkpt>
      <trkpt lat="44.51069" lon="6.67666">
        <ele>2741.3</ele>
        <time>2014-05-08T06:45:46Z</time>
      </trkpt>
      <trkpt lat="44.51054" lon="6.67652">
        <ele>2746.6</ele>
        <time>2014-05-08T06:46:29Z</time>
      </trkpt>
      <trkpt lat="44.51046" lon="6.67648">
        <ele>2751.7</ele>
        <time>2014-05-08T06:46:58Z</time>
      </trkpt>
      <trkpt lat="44.51027" lon="6.6765">
        <ele>2757</ele>
        <time>2014-05-08T06:47:46Z</time>
      </trkpt>
      <trkpt lat="44.51019" lon="6.67655">
        <ele>2760.4</ele>
        <time>2014-05-08T06:48:07Z</time>
      </trkpt>
      <trkpt lat="44.51022" lon="6.67619">
        <ele>2770.6</ele>
        <time>2014-05-08T06:50:30Z</time>
      </trkpt>
      <trkpt lat="44.51027" lon="6.67608">
        <ele>2774.4</ele>
        <time>2014-05-08T06:50:55Z</time>
      </trkpt>
      <trkpt lat="44.51039" lon="6.67589">
        <ele>2778.9</ele>
        <time>2014-05-08T06:51:35Z</time>
      </trkpt>
      <trkpt lat="44.51034" lon="6.67578">
        <ele>2784.4</ele>
        <time>2014-05-08T06:52:04Z</time>
      </trkpt>
      <trkpt lat="44.51034" lon="6.67557">
        <ele>2789.5</ele>
        <time>2014-05-08T06:52:46Z</time>
      </trkpt>
      <trkpt lat="44.51041" lon="6.67549">
        <ele>2791.9</ele>
        <time>2014-05-08T06:53:02Z</time>
      </trkpt>
      <trkpt lat="44.51049" lon="6.67542">
        <ele>2795.9</ele>
        <time>2014-05-08T06:53:25Z</time>
      </trkpt>
      <trkpt lat="44.51062" lon="6.67523">
        <ele>2801.7</ele>
        <time>2014-05-08T06:54:07Z</time>
      </trkpt>
      <trkpt lat="44.51066" lon="6.67512">
        <ele>2805.4</ele>
        <time>2014-05-08T06:54:32Z</time>
      </trkpt>
      <trkpt lat="44.51065" lon="6.67487">
        <ele>2810.8</ele>
        <time>2014-05-08T06:55:36Z</time>
      </trkpt>
      <trkpt lat="44.51057" lon="6.67464">
        <ele>2814.9</ele>
        <time>2014-05-08T06:56:24Z</time>
      </trkpt>
      <trkpt lat="44.51052" lon="6.67453">
        <ele>2818.5</ele>
        <time>2014-05-08T06:56:41Z</time>
      </trkpt>
      <trkpt lat="44.5104" lon="6.67433">
        <ele>2823.7</ele>
        <time>2014-05-08T06:57:19Z</time>
      </trkpt>
      <trkpt lat="44.51031" lon="6.67437">
        <ele>2827.4</ele>
        <time>2014-05-08T06:57:49Z</time>
      </trkpt>
      <trkpt lat="44.51013" lon="6.67435">
        <ele>2834.1</ele>
        <time>2014-05-08T06:58:44Z</time>
      </trkpt>
      <trkpt lat="44.51004" lon="6.67436">
        <ele>2837.6</ele>
        <time>2014-05-08T06:59:06Z</time>
      </trkpt>
      <trkpt lat="44.50996" lon="6.67414">
        <ele>2844.3</ele>
        <time>2014-05-08T06:59:57Z</time>
      </trkpt>
      <trkpt lat="44.50987" lon="6.6741">
        <ele>2847.9</ele>
        <time>2014-05-08T07:00:24Z</time>
      </trkpt>
      <trkpt lat="44.50973" lon="6.67395">
        <ele>2854</ele>
        <time>2014-05-08T07:01:10Z</time>
      </trkpt>
      <trkpt lat="44.50968" lon="6.67384">
        <ele>2857</ele>
        <time>2014-05-08T07:01:27Z</time>
      </trkpt>
      <trkpt lat="44.50966" lon="6.67363">
        <ele>2864.2</ele>
        <time>2014-05-08T07:03:09Z</time>
      </trkpt>
      <trkpt lat="44.50982" lon="6.6735">
        <ele>2868.7</ele>
        <time>2014-05-08T07:03:40Z</time>
      </trkpt>
      <trkpt lat="44.50991" lon="6.67346">
        <ele>2871.6</ele>
        <time>2014-05-08T07:04:25Z</time>
      </trkpt>
      <trkpt lat="44.51007" lon="6.67332">
        <ele>2877.4</ele>
        <time>2014-05-08T07:05:00Z</time>
      </trkpt>
      <trkpt lat="44.51015" lon="6.67326">
        <ele>2880.1</ele>
        <time>2014-05-08T07:05:15Z</time>
      </trkpt>
      <trkpt lat="44.51023" lon="6.67319">
        <ele>2882.5</ele>
        <time>2014-05-08T07:05:34Z</time>
      </trkpt>
      <trkpt lat="44.51024" lon="6.6729">
        <ele>2898</ele>
        <time>2014-05-08T07:08:05Z</time>
      </trkpt>
      <trkpt lat="44.51041" lon="6.67279">
        <ele>2900.1</ele>
        <time>2014-05-08T07:08:58Z</time>
      </trkpt>
      <trkpt lat="44.51032" lon="6.6728">
        <ele>2898.4</ele>
        <time>2014-05-08T07:18:09Z</time>
      </trkpt>
      <trkpt lat="44.51032" lon="6.67294">
        <ele>2898.6</ele>
        <time>2014-05-08T07:24:58Z</time>
      </trkpt>
      <trkpt lat="44.51027" lon="6.67317">
        <ele>2890.6</ele>
        <time>2014-05-08T07:25:12Z</time>
      </trkpt>
      <trkpt lat="44.51019" lon="6.67325">
        <ele>2887.5</ele>
        <time>2014-05-08T07:25:16Z</time>
      </trkpt>
      <trkpt lat="44.51009" lon="6.67333">
        <ele>2885</ele>
        <time>2014-05-08T07:25:21Z</time>
      </trkpt>
      <trkpt lat="44.50998" lon="6.6734">
        <ele>2882.5</ele>
        <time>2014-05-08T07:25:25Z</time>
      </trkpt>
      <trkpt lat="44.50989" lon="6.67346">
        <ele>2879.1</ele>
        <time>2014-05-08T07:25:29Z</time>
      </trkpt>
      <trkpt lat="44.5098" lon="6.67347">
        <ele>2876.4</ele>
        <time>2014-05-08T07:25:33Z</time>
      </trkpt>
      <trkpt lat="44.5097" lon="6.67346">
        <ele>2873.9</ele>
        <time>2014-05-08T07:25:39Z</time>
      </trkpt>
      <trkpt lat="44.50964" lon="6.67337">
        <ele>2869.7</ele>
        <time>2014-05-08T07:27:18Z</time>
      </trkpt>
      <trkpt lat="44.50961" lon="6.67361">
        <ele>2857.5</ele>
        <time>2014-05-08T07:27:34Z</time>
      </trkpt>
      <trkpt lat="44.50952" lon="6.67356">
        <ele>2852.5</ele>
        <time>2014-05-08T07:27:40Z</time>
      </trkpt>
      <trkpt lat="44.50945" lon="6.67367">
        <ele>2846.4</ele>
        <time>2014-05-08T07:27:47Z</time>
      </trkpt>
      <trkpt lat="44.50935" lon="6.67363">
        <ele>2842.4</ele>
        <time>2014-05-08T07:27:51Z</time>
      </trkpt>
      <trkpt lat="44.50925" lon="6.67359">
        <ele>2838.1</ele>
        <time>2014-05-08T07:27:56Z</time>
      </trkpt>
      <trkpt lat="44.5092" lon="6.67371">
        <ele>2829.9</ele>
        <time>2014-05-08T07:28:21Z</time>
      </trkpt>
      <trkpt lat="44.50913" lon="6.67396">
        <ele>2820.7</ele>
        <time>2014-05-08T07:28:29Z</time>
      </trkpt>
      <trkpt lat="44.50904" lon="6.67405">
        <ele>2813.5</ele>
        <time>2014-05-08T07:28:33Z</time>
      </trkpt>
      <trkpt lat="44.50903" lon="6.67419">
        <ele>2808.8</ele>
        <time>2014-05-08T07:28:36Z</time>
      </trkpt>
      <trkpt lat="44.50897" lon="6.67428">
        <ele>2802.3</ele>
        <time>2014-05-08T07:28:39Z</time>
      </trkpt>
      <trkpt lat="44.50892" lon="6.6744">
        <ele>2794.7</ele>
        <time>2014-05-08T07:28:43Z</time>
      </trkpt>
      <trkpt lat="44.50889" lon="6.67453">
        <ele>2787.9</ele>
        <time>2014-05-08T07:28:47Z</time>
      </trkpt>
      <trkpt lat="44.50879" lon="6.67463">
        <ele>2780.6</ele>
        <time>2014-05-08T07:28:51Z</time>
      </trkpt>
      <trkpt lat="44.50876" lon="6.67479">
        <ele>2775.2</ele>
        <time>2014-05-08T07:28:54Z</time>
      </trkpt>
      <trkpt lat="44.50863" lon="6.67483">
        <ele>2769.2</ele>
        <time>2014-05-08T07:28:57Z</time>
      </trkpt>
      <trkpt lat="44.50862" lon="6.67499">
        <ele>2763.4</ele>
        <time>2014-05-08T07:29:00Z</time>
      </trkpt>
      <trkpt lat="44.50851" lon="6.67507">
        <ele>2757.4</ele>
        <time>2014-05-08T07:29:03Z</time>
      </trkpt>
      <trkpt lat="44.50844" lon="6.67518">
        <ele>2751.6</ele>
        <time>2014-05-08T07:29:06Z</time>
      </trkpt>
      <trkpt lat="44.50843" lon="6.67532">
        <ele>2742.7</ele>
        <time>2014-05-08T07:29:33Z</time>
      </trkpt>
      <trkpt lat="44.50823" lon="6.67535">
        <ele>2738</ele>
        <time>2014-05-08T07:29:41Z</time>
      </trkpt>
      <trkpt lat="44.50813" lon="6.67537">
        <ele>2736.1</ele>
        <time>2014-05-08T07:29:45Z</time>
      </trkpt>
      <trkpt lat="44.50813" lon="6.6755">
        <ele>2730.1</ele>
        <time>2014-05-08T07:29:51Z</time>
      </trkpt>
      <trkpt lat="44.50813" lon="6.67563">
        <ele>2718.4</ele>
        <time>2014-05-08T07:29:59Z</time>
      </trkpt>
      <trkpt lat="44.50812" lon="6.67577">
        <ele>2709.3</ele>
        <time>2014-05-08T07:30:07Z</time>
      </trkpt>
      <trkpt lat="44.50801" lon="6.6758">
        <ele>2705.9</ele>
        <time>2014-05-08T07:30:11Z</time>
      </trkpt>
      <trkpt lat="44.50804" lon="6.67593">
        <ele>2694.8</ele>
        <time>2014-05-08T07:30:32Z</time>
      </trkpt>
      <trkpt lat="44.50798" lon="6.67603">
        <ele>2691.7</ele>
        <time>2014-05-08T07:30:36Z</time>
      </trkpt>
      <trkpt lat="44.50791" lon="6.67631">
        <ele>2674.5</ele>
        <time>2014-05-08T07:30:45Z</time>
      </trkpt>
      <trkpt lat="44.50787" lon="6.67644">
        <ele>2668.1</ele>
        <time>2014-05-08T07:30:49Z</time>
      </trkpt>
      <trkpt lat="44.50791" lon="6.67656">
        <ele>2662.1</ele>
        <time>2014-05-08T07:30:53Z</time>
      </trkpt>
      <trkpt lat="44.50782" lon="6.67663">
        <ele>2655.2</ele>
        <time>2014-05-08T07:32:20Z</time>
      </trkpt>
      <trkpt lat="44.50774" lon="6.67683">
        <ele>2650.3</ele>
        <time>2014-05-08T07:32:26Z</time>
      </trkpt>
      <trkpt lat="44.50762" lon="6.6769">
        <ele>2645.2</ele>
        <time>2014-05-08T07:32:29Z</time>
      </trkpt>
      <trkpt lat="44.50757" lon="6.67701">
        <ele>2640.9</ele>
        <time>2014-05-08T07:32:31Z</time>
      </trkpt>
      <trkpt lat="44.50751" lon="6.67711">
        <ele>2636.4</ele>
        <time>2014-05-08T07:32:33Z</time>
      </trkpt>
      <trkpt lat="44.50745" lon="6.67721">
        <ele>2630.8</ele>
        <time>2014-05-08T07:32:35Z</time>
      </trkpt>
      <trkpt lat="44.50742" lon="6.67733">
        <ele>2626.5</ele>
        <time>2014-05-08T07:32:37Z</time>
      </trkpt>
      <trkpt lat="44.50733" lon="6.67741">
        <ele>2622.2</ele>
        <time>2014-05-08T07:32:39Z</time>
      </trkpt>
      <trkpt lat="44.50732" lon="6.67754">
        <ele>2617.1</ele>
        <time>2014-05-08T07:32:41Z</time>
      </trkpt>
      <trkpt lat="44.50723" lon="6.6776">
        <ele>2612.9</ele>
        <time>2014-05-08T07:32:43Z</time>
      </trkpt>
      <trkpt lat="44.50718" lon="6.67776">
        <ele>2605.5</ele>
        <time>2014-05-08T07:32:46Z</time>
      </trkpt>
      <trkpt lat="44.5071" lon="6.67782">
        <ele>2601.9</ele>
        <time>2014-05-08T07:32:48Z</time>
      </trkpt>
      <trkpt lat="44.50707" lon="6.67795">
        <ele>2597.6</ele>
        <time>2014-05-08T07:32:50Z</time>
      </trkpt>
      <trkpt lat="44.50709" lon="6.67809">
        <ele>2593.2</ele>
        <time>2014-05-08T07:32:52Z</time>
      </trkpt>
      <trkpt lat="44.50714" lon="6.6782">
        <ele>2590.2</ele>
        <time>2014-05-08T07:32:54Z</time>
      </trkpt>
      <trkpt lat="44.50719" lon="6.67835">
        <ele>2587.8</ele>
        <time>2014-05-08T07:32:57Z</time>
      </trkpt>
      <trkpt lat="44.50715" lon="6.67852">
        <ele>2584.6</ele>
        <time>2014-05-08T07:33:00Z</time>
      </trkpt>
      <trkpt lat="44.50711" lon="6.67865">
        <ele>2580.9</ele>
        <time>2014-05-08T07:33:02Z</time>
      </trkpt>
      <trkpt lat="44.50707" lon="6.6788">
        <ele>2577</ele>
        <time>2014-05-08T07:33:04Z</time>
      </trkpt>
      <trkpt lat="44.50697" lon="6.67885">
        <ele>2573.4</ele>
        <time>2014-05-08T07:33:06Z</time>
      </trkpt>
      <trkpt lat="44.50693" lon="6.67898">
        <ele>2568.2</ele>
        <time>2014-05-08T07:33:10Z</time>
      </trkpt>
      <trkpt lat="44.50701" lon="6.67906">
        <ele>2564.6</ele>
        <time>2014-05-08T07:33:13Z</time>
      </trkpt>
      <trkpt lat="44.50709" lon="6.67912">
        <ele>2561.3</ele>
        <time>2014-05-08T07:33:17Z</time>
      </trkpt>
      <trkpt lat="44.50701" lon="6.67918">
        <ele>2555.1</ele>
        <time>2014-05-08T07:44:14Z</time>
      </trkpt>
      <trkpt lat="44.50682" lon="6.67924">
        <ele>2554.2</ele>
        <time>2014-05-08T07:44:22Z</time>
      </trkpt>
      <trkpt lat="44.50673" lon="6.6792">
        <ele>2553</ele>
        <time>2014-05-08T07:44:26Z</time>
      </trkpt>
      <trkpt lat="44.50665" lon="6.67913">
        <ele>2552.8</ele>
        <time>2014-05-08T07:44:29Z</time>
      </trkpt>
      <trkpt lat="44.50657" lon="6.67906">
        <ele>2551.7</ele>
        <time>2014-05-08T07:44:31Z</time>
      </trkpt>
      <trkpt lat="44.50647" lon="6.67903">
        <ele>2550.9</ele>
        <time>2014-05-08T07:44:33Z</time>
      </trkpt>
      <trkpt lat="44.50637" lon="6.67916">
        <ele>2547</ele>
        <time>2014-05-08T07:44:36Z</time>
      </trkpt>
      <trkpt lat="44.50631" lon="6.67932">
        <ele>2542.4</ele>
        <time>2014-05-08T07:44:39Z</time>
      </trkpt>
      <trkpt lat="44.50621" lon="6.67939">
        <ele>2538.5</ele>
        <time>2014-05-08T07:44:41Z</time>
      </trkpt>
      <trkpt lat="44.50616" lon="6.67951">
        <ele>2534.1</ele>
        <time>2014-05-08T07:44:43Z</time>
      </trkpt>
      <trkpt lat="44.5061" lon="6.6796">
        <ele>2530.5</ele>
        <time>2014-05-08T07:44:45Z</time>
      </trkpt>
      <trkpt lat="44.50601" lon="6.67967">
        <ele>2525.7</ele>
        <time>2014-05-08T07:44:47Z</time>
      </trkpt>
      <trkpt lat="44.50592" lon="6.67978">
        <ele>2521.3</ele>
        <time>2014-05-08T07:44:49Z</time>
      </trkpt>
      <trkpt lat="44.5058" lon="6.67986">
        <ele>2517.1</ele>
        <time>2014-05-08T07:44:51Z</time>
      </trkpt>
      <trkpt lat="44.5057" lon="6.67989">
        <ele>2514.9</ele>
        <time>2014-05-08T07:44:53Z</time>
      </trkpt>
      <trkpt lat="44.50561" lon="6.6799">
        <ele>2513.6</ele>
        <time>2014-05-08T07:44:55Z</time>
      </trkpt>
      <trkpt lat="44.50555" lon="6.68002">
        <ele>2511.4</ele>
        <time>2014-05-08T07:44:57Z</time>
      </trkpt>
      <trkpt lat="44.50545" lon="6.68011">
        <ele>2509.1</ele>
        <time>2014-05-08T07:44:59Z</time>
      </trkpt>
      <trkpt lat="44.50534" lon="6.68017">
        <ele>2507.6</ele>
        <time>2014-05-08T07:45:01Z</time>
      </trkpt>
      <trkpt lat="44.50522" lon="6.6802">
        <ele>2506.9</ele>
        <time>2014-05-08T07:45:04Z</time>
      </trkpt>
      <trkpt lat="44.50511" lon="6.68019">
        <ele>2506.4</ele>
        <time>2014-05-08T07:45:08Z</time>
      </trkpt>
      <trkpt lat="44.505" lon="6.68016">
        <ele>2505.3</ele>
        <time>2014-05-08T07:45:12Z</time>
      </trkpt>
      <trkpt lat="44.5049" lon="6.68011">
        <ele>2504.7</ele>
        <time>2014-05-08T07:45:16Z</time>
      </trkpt>
      <trkpt lat="44.5046" lon="6.67983">
        <ele>2508.7</ele>
        <time>2014-05-08T07:54:31Z</time>
      </trkpt>
      <trkpt lat="44.50454" lon="6.67974">
        <ele>2511.9</ele>
        <time>2014-05-08T07:54:49Z</time>
      </trkpt>
      <trkpt lat="44.50447" lon="6.67965">
        <ele>2514</ele>
        <time>2014-05-08T07:55:06Z</time>
      </trkpt>
      <trkpt lat="44.50434" lon="6.67947">
        <ele>2517.8</ele>
        <time>2014-05-08T07:55:37Z</time>
      </trkpt>
      <trkpt lat="44.50427" lon="6.67939">
        <ele>2520.3</ele>
        <time>2014-05-08T07:55:53Z</time>
      </trkpt>
      <trkpt lat="44.5042" lon="6.67932">
        <ele>2521.6</ele>
        <time>2014-05-08T07:56:08Z</time>
      </trkpt>
      <trkpt lat="44.50404" lon="6.67917">
        <ele>2524.9</ele>
        <time>2014-05-08T07:56:50Z</time>
      </trkpt>
      <trkpt lat="44.50396" lon="6.6791">
        <ele>2528.8</ele>
        <time>2014-05-08T07:57:04Z</time>
      </trkpt>
      <trkpt lat="44.5039" lon="6.67901">
        <ele>2530.2</ele>
        <time>2014-05-08T07:57:18Z</time>
      </trkpt>
      <trkpt lat="44.50377" lon="6.67883">
        <ele>2533.8</ele>
        <time>2014-05-08T07:57:49Z</time>
      </trkpt>
      <trkpt lat="44.5037" lon="6.67874">
        <ele>2536.5</ele>
        <time>2014-05-08T07:58:06Z</time>
      </trkpt>
      <trkpt lat="44.50363" lon="6.67865">
        <ele>2539.7</ele>
        <time>2014-05-08T07:58:23Z</time>
      </trkpt>
      <trkpt lat="44.5035" lon="6.67846">
        <ele>2545.2</ele>
        <time>2014-05-08T07:59:00Z</time>
      </trkpt>
      <trkpt lat="44.50346" lon="6.67835">
        <ele>2547.9</ele>
        <time>2014-05-08T07:59:19Z</time>
      </trkpt>
      <trkpt lat="44.50341" lon="6.67824">
        <ele>2550.3</ele>
        <time>2014-05-08T07:59:35Z</time>
      </trkpt>
      <trkpt lat="44.5033" lon="6.67803">
        <ele>2555.8</ele>
        <time>2014-05-08T08:00:10Z</time>
      </trkpt>
      <trkpt lat="44.50324" lon="6.67793">
        <ele>2558</ele>
        <time>2014-05-08T08:00:27Z</time>
      </trkpt>
      <trkpt lat="44.5032" lon="6.67781">
        <ele>2560.5</ele>
        <time>2014-05-08T08:00:45Z</time>
      </trkpt>
      <trkpt lat="44.50311" lon="6.67759">
        <ele>2565.3</ele>
        <time>2014-05-08T08:01:20Z</time>
      </trkpt>
      <trkpt lat="44.50306" lon="6.67748">
        <ele>2567.3</ele>
        <time>2014-05-08T08:01:40Z</time>
      </trkpt>
      <trkpt lat="44.50302" lon="6.67736">
        <ele>2568.5</ele>
        <time>2014-05-08T08:01:58Z</time>
      </trkpt>
      <trkpt lat="44.50294" lon="6.67712">
        <ele>2574.5</ele>
        <time>2014-05-08T08:02:36Z</time>
      </trkpt>
      <trkpt lat="44.50289" lon="6.67701">
        <ele>2576.5</ele>
        <time>2014-05-08T08:02:53Z</time>
      </trkpt>
      <trkpt lat="44.50284" lon="6.6769">
        <ele>2577.7</ele>
        <time>2014-05-08T08:03:09Z</time>
      </trkpt>
      <trkpt lat="44.50275" lon="6.67667">
        <ele>2582.9</ele>
        <time>2014-05-08T08:03:41Z</time>
      </trkpt>
      <trkpt lat="44.50271" lon="6.67656">
        <ele>2584.6</ele>
        <time>2014-05-08T08:03:59Z</time>
      </trkpt>
      <trkpt lat="44.50266" lon="6.67645">
        <ele>2588</ele>
        <time>2014-05-08T08:04:18Z</time>
      </trkpt>
      <trkpt lat="44.50258" lon="6.67622">
        <ele>2593.8</ele>
        <time>2014-05-08T08:04:58Z</time>
      </trkpt>
      <trkpt lat="44.50254" lon="6.6761">
        <ele>2597.6</ele>
        <time>2014-05-08T08:05:18Z</time>
      </trkpt>
      <trkpt lat="44.50249" lon="6.676">
        <ele>2600.2</ele>
        <time>2014-05-08T08:05:39Z</time>
      </trkpt>
      <trkpt lat="44.50239" lon="6.67579">
        <ele>2607.3</ele>
        <time>2014-05-08T08:06:27Z</time>
      </trkpt>
      <trkpt lat="44.50233" lon="6.67569">
        <ele>2611.6</ele>
        <time>2014-05-08T08:06:55Z</time>
      </trkpt>
      <trkpt lat="44.50218" lon="6.67553">
        <ele>2619.3</ele>
        <time>2014-05-08T08:07:44Z</time>
      </trkpt>
      <trkpt lat="44.50212" lon="6.67544">
        <ele>2623.5</ele>
        <time>2014-05-08T08:08:03Z</time>
      </trkpt>
      <trkpt lat="44.50203" lon="6.67521">
        <ele>2628.9</ele>
        <time>2014-05-08T08:08:41Z</time>
      </trkpt>
      <trkpt lat="44.50199" lon="6.67509">
        <ele>2630.7</ele>
        <time>2014-05-08T08:08:59Z</time>
      </trkpt>
      <trkpt lat="44.50195" lon="6.67497">
        <ele>2632.5</ele>
        <time>2014-05-08T08:09:17Z</time>
      </trkpt>
      <trkpt lat="44.50189" lon="6.67473">
        <ele>2639</ele>
        <time>2014-05-08T08:09:54Z</time>
      </trkpt>
      <trkpt lat="44.50186" lon="6.67461">
        <ele>2642.3</ele>
        <time>2014-05-08T08:10:14Z</time>
      </trkpt>
      <trkpt lat="44.50183" lon="6.67449">
        <ele>2645.4</ele>
        <time>2014-05-08T08:10:34Z</time>
      </trkpt>
      <trkpt lat="44.50172" lon="6.67428">
        <ele>2652</ele>
        <time>2014-05-08T08:11:21Z</time>
      </trkpt>
      <trkpt lat="44.50166" lon="6.67418">
        <ele>2655.2</ele>
        <time>2014-05-08T08:11:43Z</time>
      </trkpt>
      <trkpt lat="44.50154" lon="6.67399">
        <ele>2661.3</ele>
        <time>2014-05-08T08:12:28Z</time>
      </trkpt>
      <trkpt lat="44.5015" lon="6.67387">
        <ele>2665.5</ele>
        <time>2014-05-08T08:12:50Z</time>
      </trkpt>
      <trkpt lat="44.50138" lon="6.67368">
        <ele>2670.1</ele>
        <time>2014-05-08T08:13:28Z</time>
      </trkpt>
      <trkpt lat="44.50132" lon="6.67358">
        <ele>2672.9</ele>
        <time>2014-05-08T08:13:47Z</time>
      </trkpt>
      <trkpt lat="44.50124" lon="6.67365">
        <ele>2676.4</ele>
        <time>2014-05-08T08:14:10Z</time>
      </trkpt>
      <trkpt lat="44.5011" lon="6.67363">
        <ele>2682.7</ele>
        <time>2014-05-08T08:15:00Z</time>
      </trkpt>
      <trkpt lat="44.50108" lon="6.67351">
        <ele>2686.2</ele>
        <time>2014-05-08T08:15:19Z</time>
      </trkpt>
      <trkpt lat="44.50109" lon="6.67325">
        <ele>2692</ele>
        <time>2014-05-08T08:16:04Z</time>
      </trkpt>
      <trkpt lat="44.50108" lon="6.67313">
        <ele>2695</ele>
        <time>2014-05-08T08:17:14Z</time>
      </trkpt>
      <trkpt lat="44.50118" lon="6.67291">
        <ele>2700.7</ele>
        <time>2014-05-08T08:17:55Z</time>
      </trkpt>
      <trkpt lat="44.50121" lon="6.67279">
        <ele>2703.8</ele>
        <time>2014-05-08T08:18:18Z</time>
      </trkpt>
      <trkpt lat="44.50124" lon="6.67254">
        <ele>2712.2</ele>
        <time>2014-05-08T08:19:07Z</time>
      </trkpt>
      <trkpt lat="44.50125" lon="6.67241">
        <ele>2714.6</ele>
        <time>2014-05-08T08:19:32Z</time>
      </trkpt>
      <trkpt lat="44.50132" lon="6.67217">
        <ele>2720.9</ele>
        <time>2014-05-08T08:20:21Z</time>
      </trkpt>
      <trkpt lat="44.50134" lon="6.67205">
        <ele>2724.1</ele>
        <time>2014-05-08T08:20:48Z</time>
      </trkpt>
      <trkpt lat="44.5014" lon="6.6718">
        <ele>2731.8</ele>
        <time>2014-05-08T08:21:43Z</time>
      </trkpt>
      <trkpt lat="44.50144" lon="6.67168">
        <ele>2736.4</ele>
        <time>2014-05-08T08:22:11Z</time>
      </trkpt>
      <trkpt lat="44.50149" lon="6.67143">
        <ele>2744.4</ele>
        <time>2014-05-08T08:23:05Z</time>
      </trkpt>
      <trkpt lat="44.50141" lon="6.67138">
        <ele>2750.9</ele>
        <time>2014-05-08T08:24:28Z</time>
      </trkpt>
      <trkpt lat="44.50124" lon="6.67146">
        <ele>2757.9</ele>
        <time>2014-05-08T08:25:24Z</time>
      </trkpt>
      <trkpt lat="44.50115" lon="6.6715">
        <ele>2762.3</ele>
        <time>2014-05-08T08:25:50Z</time>
      </trkpt>
      <trkpt lat="44.50097" lon="6.67156">
        <ele>2768.3</ele>
        <time>2014-05-08T08:27:12Z</time>
      </trkpt>
      <trkpt lat="44.50079" lon="6.67158">
        <ele>2773.6</ele>
        <time>2014-05-08T08:27:53Z</time>
      </trkpt>
      <trkpt lat="44.5007" lon="6.67159">
        <ele>2777.7</ele>
        <time>2014-05-08T08:28:17Z</time>
      </trkpt>
      <trkpt lat="44.50052" lon="6.67156">
        <ele>2785.2</ele>
        <time>2014-05-08T08:29:08Z</time>
      </trkpt>
      <trkpt lat="44.50045" lon="6.67148">
        <ele>2788.3</ele>
        <time>2014-05-08T08:30:23Z</time>
      </trkpt>
      <trkpt lat="44.50027" lon="6.67143">
        <ele>2795.7</ele>
        <time>2014-05-08T08:31:08Z</time>
      </trkpt>
      <trkpt lat="44.50018" lon="6.67144">
        <ele>2798.3</ele>
        <time>2014-05-08T08:31:30Z</time>
      </trkpt>
      <trkpt lat="44.50016" lon="6.67119">
        <ele>2809.7</ele>
        <time>2014-05-08T08:32:58Z</time>
      </trkpt>
      <trkpt lat="44.50023" lon="6.67094">
        <ele>2816</ele>
        <time>2014-05-08T08:33:51Z</time>
      </trkpt>
      <trkpt lat="44.50027" lon="6.67083">
        <ele>2818.5</ele>
        <time>2014-05-08T08:34:25Z</time>
      </trkpt>
      <trkpt lat="44.50036" lon="6.6706">
        <ele>2823.7</ele>
        <time>2014-05-08T08:35:14Z</time>
      </trkpt>
      <trkpt lat="44.5004" lon="6.67049">
        <ele>2829</ele>
        <time>2014-05-08T08:35:56Z</time>
      </trkpt>
      <trkpt lat="44.50047" lon="6.67026">
        <ele>2837.9</ele>
        <time>2014-05-08T08:36:55Z</time>
      </trkpt>
      <trkpt lat="44.50051" lon="6.67014">
        <ele>2841.3</ele>
        <time>2014-05-08T08:37:22Z</time>
      </trkpt>
      <trkpt lat="44.50034" lon="6.67007">
        <ele>2849.3</ele>
        <time>2014-05-08T08:38:27Z</time>
      </trkpt>
      <trkpt lat="44.50015" lon="6.67001">
        <ele>2856.4</ele>
        <time>2014-05-08T08:39:21Z</time>
      </trkpt>
      <trkpt lat="44.50006" lon="6.66999">
        <ele>2861.2</ele>
        <time>2014-05-08T08:39:49Z</time>
      </trkpt>
      <trkpt lat="44.49988" lon="6.66994">
        <ele>2869.1</ele>
        <time>2014-05-08T08:41:22Z</time>
      </trkpt>
      <trkpt lat="44.49988" lon="6.66972">
        <ele>2877.3</ele>
        <time>2014-05-08T08:42:16Z</time>
      </trkpt>
      <trkpt lat="44.49991" lon="6.6696">
        <ele>2880</ele>
        <time>2014-05-08T08:42:37Z</time>
      </trkpt>
      <trkpt lat="44.5" lon="6.66937">
        <ele>2886.7</ele>
        <time>2014-05-08T08:43:47Z</time>
      </trkpt>
      <trkpt lat="44.5002" lon="6.66911">
        <ele>2897.5</ele>
        <time>2014-05-08T08:46:21Z</time>
      </trkpt>
      <trkpt lat="44.50026" lon="6.66902">
        <ele>2899.4</ele>
        <time>2014-05-08T08:47:01Z</time>
      </trkpt>
      <trkpt lat="44.50022" lon="6.66893">
        <ele>2908.1</ele>
        <time>2014-05-08T08:49:02Z</time>
      </trkpt>
      <trkpt lat="44.50024" lon="6.66935">
        <ele>2890.6</ele>
        <time>2014-05-08T09:04:32Z</time>
      </trkpt>
      <trkpt lat="44.50028" lon="6.66949">
        <ele>2885.7</ele>
        <time>2014-05-08T09:04:36Z</time>
      </trkpt>
      <trkpt lat="44.50032" lon="6.66963">
        <ele>2878.7</ele>
        <time>2014-05-08T09:04:40Z</time>
      </trkpt>
      <trkpt lat="44.50033" lon="6.66976">
        <ele>2872.8</ele>
        <time>2014-05-08T09:04:43Z</time>
      </trkpt>
      <trkpt lat="44.50032" lon="6.66989">
        <ele>2866.4</ele>
        <time>2014-05-08T09:04:46Z</time>
      </trkpt>
      <trkpt lat="44.50035" lon="6.67001">
        <ele>2860.4</ele>
        <time>2014-05-08T09:04:49Z</time>
      </trkpt>
      <trkpt lat="44.50036" lon="6.67015">
        <ele>2855.3</ele>
        <time>2014-05-08T09:04:52Z</time>
      </trkpt>
      <trkpt lat="44.50044" lon="6.67023">
        <ele>2849.4</ele>
        <time>2014-05-08T09:04:55Z</time>
      </trkpt>
      <trkpt lat="44.50046" lon="6.67037">
        <ele>2842.8</ele>
        <time>2014-05-08T09:04:58Z</time>
      </trkpt>
      <trkpt lat="44.50054" lon="6.67046">
        <ele>2836.1</ele>
        <time>2014-05-08T09:05:02Z</time>
      </trkpt>
      <trkpt lat="44.50056" lon="6.6706">
        <ele>2831.1</ele>
        <time>2014-05-08T09:05:05Z</time>
      </trkpt>
      <trkpt lat="44.50062" lon="6.6707">
        <ele>2824.8</ele>
        <time>2014-05-08T09:05:08Z</time>
      </trkpt>
      <trkpt lat="44.50068" lon="6.6708">
        <ele>2818.8</ele>
        <time>2014-05-08T09:05:11Z</time>
      </trkpt>
      <trkpt lat="44.50071" lon="6.67095">
        <ele>2808.6</ele>
        <time>2014-05-08T09:05:15Z</time>
      </trkpt>
      <trkpt lat="44.50066" lon="6.67106">
        <ele>2805.6</ele>
        <time>2014-05-08T09:05:17Z</time>
      </trkpt>
      <trkpt lat="44.50057" lon="6.67119">
        <ele>2801.9</ele>
        <time>2014-05-08T09:05:20Z</time>
      </trkpt>
      <trkpt lat="44.50048" lon="6.6713">
        <ele>2798.8</ele>
        <time>2014-05-08T09:05:23Z</time>
      </trkpt>
      <trkpt lat="44.50055" lon="6.67142">
        <ele>2793.4</ele>
        <time>2014-05-08T09:05:27Z</time>
      </trkpt>
      <trkpt lat="44.50057" lon="6.67169">
        <ele>2786.4</ele>
        <time>2014-05-08T09:05:34Z</time>
      </trkpt>
      <trkpt lat="44.50066" lon="6.67178">
        <ele>2781</ele>
        <time>2014-05-08T09:05:37Z</time>
      </trkpt>
      <trkpt lat="44.50066" lon="6.67196">
        <ele>2775.6</ele>
        <time>2014-05-08T09:05:40Z</time>
      </trkpt>
      <trkpt lat="44.50073" lon="6.67211">
        <ele>2769.3</ele>
        <time>2014-05-08T09:05:43Z</time>
      </trkpt>
      <trkpt lat="44.50071" lon="6.67224">
        <ele>2764.9</ele>
        <time>2014-05-08T09:05:45Z</time>
      </trkpt>
      <trkpt lat="44.5008" lon="6.6723">
        <ele>2751.7</ele>
        <time>2014-05-08T09:06:26Z</time>
      </trkpt>
      <trkpt lat="44.50083" lon="6.67241">
        <ele>2749.6</ele>
        <time>2014-05-08T09:06:29Z</time>
      </trkpt>
      <trkpt lat="44.50101" lon="6.67256">
        <ele>2737.8</ele>
        <time>2014-05-08T09:06:36Z</time>
      </trkpt>
      <trkpt lat="44.501" lon="6.6727">
        <ele>2733.1</ele>
        <time>2014-05-08T09:06:39Z</time>
      </trkpt>
      <trkpt lat="44.50095" lon="6.67282">
        <ele>2726.9</ele>
        <time>2014-05-08T09:06:43Z</time>
      </trkpt>
      <trkpt lat="44.50103" lon="6.67288">
        <ele>2721.8</ele>
        <time>2014-05-08T09:06:47Z</time>
      </trkpt>
      <trkpt lat="44.50107" lon="6.673">
        <ele>2717</ele>
        <time>2014-05-08T09:06:51Z</time>
      </trkpt>
      <trkpt lat="44.50115" lon="6.67306">
        <ele>2709.2</ele>
        <time>2014-05-08T09:06:55Z</time>
      </trkpt>
      <trkpt lat="44.5012" lon="6.67317">
        <ele>2704.7</ele>
        <time>2014-05-08T09:06:58Z</time>
      </trkpt>
      <trkpt lat="44.50126" lon="6.67328">
        <ele>2695</ele>
        <time>2014-05-08T09:07:02Z</time>
      </trkpt>
      <trkpt lat="44.50121" lon="6.6734">
        <ele>2691.3</ele>
        <time>2014-05-08T09:07:04Z</time>
      </trkpt>
      <trkpt lat="44.50117" lon="6.67353">
        <ele>2688.4</ele>
        <time>2014-05-08T09:07:06Z</time>
      </trkpt>
      <trkpt lat="44.50125" lon="6.67363">
        <ele>2685</ele>
        <time>2014-05-08T09:07:09Z</time>
      </trkpt>
      <trkpt lat="44.50128" lon="6.67375">
        <ele>2681.5</ele>
        <time>2014-05-08T09:07:11Z</time>
      </trkpt>
      <trkpt lat="44.50131" lon="6.67387">
        <ele>2677.3</ele>
        <time>2014-05-08T09:07:13Z</time>
      </trkpt>
      <trkpt lat="44.5014" lon="6.6739">
        <ele>2673.8</ele>
        <time>2014-05-08T09:07:15Z</time>
      </trkpt>
      <trkpt lat="44.50142" lon="6.67403">
        <ele>2670.7</ele>
        <time>2014-05-08T09:07:17Z</time>
      </trkpt>
      <trkpt lat="44.50151" lon="6.6741">
        <ele>2667.1</ele>
        <time>2014-05-08T09:07:19Z</time>
      </trkpt>
      <trkpt lat="44.50159" lon="6.67418">
        <ele>2663.3</ele>
        <time>2014-05-08T09:07:21Z</time>
      </trkpt>
      <trkpt lat="44.50159" lon="6.67432">
        <ele>2660.4</ele>
        <time>2014-05-08T09:07:23Z</time>
      </trkpt>
      <trkpt lat="44.50169" lon="6.6744">
        <ele>2656.5</ele>
        <time>2014-05-08T09:07:25Z</time>
      </trkpt>
      <trkpt lat="44.50178" lon="6.67449">
        <ele>2652.1</ele>
        <time>2014-05-08T09:07:27Z</time>
      </trkpt>
      <trkpt lat="44.50179" lon="6.67466">
        <ele>2648.9</ele>
        <time>2014-05-08T09:07:29Z</time>
      </trkpt>
      <trkpt lat="44.50191" lon="6.67475">
        <ele>2644.4</ele>
        <time>2014-05-08T09:07:31Z</time>
      </trkpt>
      <trkpt lat="44.50204" lon="6.675">
        <ele>2637</ele>
        <time>2014-05-08T09:07:35Z</time>
      </trkpt>
      <trkpt lat="44.50213" lon="6.6751">
        <ele>2633.9</ele>
        <time>2014-05-08T09:07:37Z</time>
      </trkpt>
      <trkpt lat="44.50216" lon="6.67522">
        <ele>2625.4</ele>
        <time>2014-05-08T09:08:34Z</time>
      </trkpt>
      <trkpt lat="44.5022" lon="6.67562">
        <ele>2621.2</ele>
        <time>2014-05-08T09:09:52Z</time>
      </trkpt>
      <trkpt lat="44.50219" lon="6.67576">
        <ele>2619.4</ele>
        <time>2014-05-08T09:09:54Z</time>
      </trkpt>
      <trkpt lat="44.50225" lon="6.67588">
        <ele>2616.1</ele>
        <time>2014-05-08T09:09:56Z</time>
      </trkpt>
      <trkpt lat="44.50225" lon="6.67606">
        <ele>2610.9</ele>
        <time>2014-05-08T09:09:58Z</time>
      </trkpt>
      <trkpt lat="44.50232" lon="6.67621">
        <ele>2605</ele>
        <time>2014-05-08T09:10:00Z</time>
      </trkpt>
      <trkpt lat="44.50233" lon="6.67638">
        <ele>2599.4</ele>
        <time>2014-05-08T09:10:02Z</time>
      </trkpt>
      <trkpt lat="44.50232" lon="6.67654">
        <ele>2593.3</ele>
        <time>2014-05-08T09:10:04Z</time>
      </trkpt>
      <trkpt lat="44.50231" lon="6.67672">
        <ele>2588.8</ele>
        <time>2014-05-08T09:10:06Z</time>
      </trkpt>
      <trkpt lat="44.5023" lon="6.6769">
        <ele>2583.2</ele>
        <time>2014-05-08T09:10:08Z</time>
      </trkpt>
      <trkpt lat="44.5023" lon="6.67708">
        <ele>2578</ele>
        <time>2014-05-08T09:10:10Z</time>
      </trkpt>
      <trkpt lat="44.50226" lon="6.67728">
        <ele>2573.1</ele>
        <time>2014-05-08T09:10:12Z</time>
      </trkpt>
      <trkpt lat="44.50235" lon="6.67742">
        <ele>2569.5</ele>
        <time>2014-05-08T09:10:14Z</time>
      </trkpt>
      <trkpt lat="44.50239" lon="6.67758">
        <ele>2565.8</ele>
        <time>2014-05-08T09:10:16Z</time>
      </trkpt>
      <trkpt lat="44.50239" lon="6.67775">
        <ele>2562.9</ele>
        <time>2014-05-08T09:10:18Z</time>
      </trkpt>
      <trkpt lat="44.50243" lon="6.67791">
        <ele>2559.7</ele>
        <time>2014-05-08T09:10:20Z</time>
      </trkpt>
      <trkpt lat="44.50236" lon="6.67804">
        <ele>2557.7</ele>
        <time>2014-05-08T09:10:22Z</time>
      </trkpt>
      <trkpt lat="44.50232" lon="6.67818">
        <ele>2555.7</ele>
        <time>2014-05-08T09:10:24Z</time>
      </trkpt>
      <trkpt lat="44.50227" lon="6.6783">
        <ele>2554.2</ele>
        <time>2014-05-08T09:10:26Z</time>
      </trkpt>
      <trkpt lat="44.50222" lon="6.67843">
        <ele>2551.6</ele>
        <time>2014-05-08T09:10:28Z</time>
      </trkpt>
      <trkpt lat="44.50226" lon="6.67855">
        <ele>2548</ele>
        <time>2014-05-08T09:10:30Z</time>
      </trkpt>
      <trkpt lat="44.50232" lon="6.67866">
        <ele>2545.2</ele>
        <time>2014-05-08T09:10:32Z</time>
      </trkpt>
      <trkpt lat="44.50239" lon="6.67875">
        <ele>2542.9</ele>
        <time>2014-05-08T09:10:35Z</time>
      </trkpt>
      <trkpt lat="44.50244" lon="6.67885">
        <ele>2540.5</ele>
        <time>2014-05-08T09:11:00Z</time>
      </trkpt>
      <trkpt lat="44.50248" lon="6.67911">
        <ele>2538</ele>
        <time>2014-05-08T09:11:06Z</time>
      </trkpt>
      <trkpt lat="44.50255" lon="6.67923">
        <ele>2535.2</ele>
        <time>2014-05-08T09:11:08Z</time>
      </trkpt>
      <trkpt lat="44.50259" lon="6.67938">
        <ele>2532.8</ele>
        <time>2014-05-08T09:11:10Z</time>
      </trkpt>
      <trkpt lat="44.50263" lon="6.67955">
        <ele>2529.6</ele>
        <time>2014-05-08T09:11:12Z</time>
      </trkpt>
      <trkpt lat="44.50268" lon="6.67974">
        <ele>2525.8</ele>
        <time>2014-05-08T09:11:14Z</time>
      </trkpt>
      <trkpt lat="44.50278" lon="6.67993">
        <ele>2523</ele>
        <time>2014-05-08T09:11:16Z</time>
      </trkpt>
      <trkpt lat="44.50286" lon="6.68015">
        <ele>2520.4</ele>
        <time>2014-05-08T09:11:18Z</time>
      </trkpt>
      <trkpt lat="44.50294" lon="6.68037">
        <ele>2517.8</ele>
        <time>2014-05-08T09:11:20Z</time>
      </trkpt>
      <trkpt lat="44.50301" lon="6.68057">
        <ele>2515.7</ele>
        <time>2014-05-08T09:11:22Z</time>
      </trkpt>
      <trkpt lat="44.50306" lon="6.68074">
        <ele>2514.9</ele>
        <time>2014-05-08T09:11:24Z</time>
      </trkpt>
      <trkpt lat="44.50312" lon="6.68087">
        <ele>2514.6</ele>
        <time>2014-05-08T09:11:26Z</time>
      </trkpt>
      <trkpt lat="44.5032" lon="6.68098">
        <ele>2513.5</ele>
        <time>2014-05-08T09:11:28Z</time>
      </trkpt>
      <trkpt lat="44.5033" lon="6.68108">
        <ele>2512.5</ele>
        <time>2014-05-08T09:11:30Z</time>
      </trkpt>
      <trkpt lat="44.50339" lon="6.68118">
        <ele>2511.7</ele>
        <time>2014-05-08T09:11:32Z</time>
      </trkpt>
      <trkpt lat="44.50349" lon="6.68128">
        <ele>2511.3</ele>
        <time>2014-05-08T09:11:35Z</time>
      </trkpt>
      <trkpt lat="44.50358" lon="6.68137">
        <ele>2510.7</ele>
        <time>2014-05-08T09:11:55Z</time>
      </trkpt>
      <trkpt lat="44.50366" lon="6.68147">
        <ele>2509.6</ele>
        <time>2014-05-08T09:11:58Z</time>
      </trkpt>
      <trkpt lat="44.50363" lon="6.68161">
        <ele>2506.5</ele>
        <time>2014-05-08T09:12:58Z</time>
      </trkpt>
      <trkpt lat="44.5036" lon="6.68187">
        <ele>2504.7</ele>
        <time>2014-05-08T09:13:02Z</time>
      </trkpt>
      <trkpt lat="44.50359" lon="6.68203">
        <ele>2504.1</ele>
        <time>2014-05-08T09:13:05Z</time>
      </trkpt>
      <trkpt lat="44.50357" lon="6.68221">
        <ele>2504</ele>
        <time>2014-05-08T09:13:08Z</time>
      </trkpt>
      <trkpt lat="44.50354" lon="6.68239">
        <ele>2503.1</ele>
        <time>2014-05-08T09:13:11Z</time>
      </trkpt>
      <trkpt lat="44.5035" lon="6.68257">
        <ele>2501.9</ele>
        <time>2014-05-08T09:13:14Z</time>
      </trkpt>
      <trkpt lat="44.50348" lon="6.6827">
        <ele>2501.1</ele>
        <time>2014-05-08T09:13:16Z</time>
      </trkpt>
      <trkpt lat="44.50346" lon="6.68284">
        <ele>2500.8</ele>
        <time>2014-05-08T09:13:19Z</time>
      </trkpt>
      <trkpt lat="44.50343" lon="6.68296">
        <ele>2500.6</ele>
        <time>2014-05-08T09:13:24Z</time>
      </trkpt>
      <trkpt lat="44.50338" lon="6.68307">
        <ele>2499.4</ele>
        <time>2014-05-08T09:13:41Z</time>
      </trkpt>
      <trkpt lat="44.50343" lon="6.6832">
        <ele>2497</ele>
        <time>2014-05-08T09:13:46Z</time>
      </trkpt>
      <trkpt lat="44.50345" lon="6.68337">
        <ele>2494</ele>
        <time>2014-05-08T09:13:49Z</time>
      </trkpt>
      <trkpt lat="44.50355" lon="6.68346">
        <ele>2490.2</ele>
        <time>2014-05-08T09:13:52Z</time>
      </trkpt>
      <trkpt lat="44.50355" lon="6.68364">
        <ele>2485.9</ele>
        <time>2014-05-08T09:13:55Z</time>
      </trkpt>
      <trkpt lat="44.50365" lon="6.68364">
        <ele>2481.5</ele>
        <time>2014-05-08T09:13:58Z</time>
      </trkpt>
      <trkpt lat="44.50378" lon="6.68357">
        <ele>2476.6</ele>
        <time>2014-05-08T09:14:01Z</time>
      </trkpt>
      <trkpt lat="44.50388" lon="6.6837">
        <ele>2470.1</ele>
        <time>2014-05-08T09:14:08Z</time>
      </trkpt>
      <trkpt lat="44.50384" lon="6.68384">
        <ele>2468.6</ele>
        <time>2014-05-08T09:14:10Z</time>
      </trkpt>
      <trkpt lat="44.50382" lon="6.68397">
        <ele>2465</ele>
        <time>2014-05-08T09:14:12Z</time>
      </trkpt>
      <trkpt lat="44.50379" lon="6.68411">
        <ele>2462.9</ele>
        <time>2014-05-08T09:14:14Z</time>
      </trkpt>
      <trkpt lat="44.50376" lon="6.68427">
        <ele>2461.4</ele>
        <time>2014-05-08T09:14:16Z</time>
      </trkpt>
      <trkpt lat="44.50375" lon="6.68439">
        <ele>2459.9</ele>
        <time>2014-05-08T09:14:18Z</time>
      </trkpt>
      <trkpt lat="44.50374" lon="6.68459">
        <ele>2458.4</ele>
        <time>2014-05-08T09:14:21Z</time>
      </trkpt>
      <trkpt lat="44.50374" lon="6.68472">
        <ele>2457</ele>
        <time>2014-05-08T09:14:23Z</time>
      </trkpt>
      <trkpt lat="44.50374" lon="6.6849">
        <ele>2454.8</ele>
        <time>2014-05-08T09:14:26Z</time>
      </trkpt>
      <trkpt lat="44.50374" lon="6.68506">
        <ele>2453.1</ele>
        <time>2014-05-08T09:14:29Z</time>
      </trkpt>
      <trkpt lat="44.50375" lon="6.68519">
        <ele>2452.2</ele>
        <time>2014-05-08T09:14:32Z</time>
      </trkpt>
      <trkpt lat="44.50386" lon="6.6852">
        <ele>2446.8</ele>
        <time>2014-05-08T09:14:37Z</time>
      </trkpt>
      <trkpt lat="44.50392" lon="6.68532">
        <ele>2444.9</ele>
        <time>2014-05-08T09:14:39Z</time>
      </trkpt>
      <trkpt lat="44.50397" lon="6.68551">
        <ele>2442.5</ele>
        <time>2014-05-08T09:14:41Z</time>
      </trkpt>
      <trkpt lat="44.50405" lon="6.68571">
        <ele>2438.3</ele>
        <time>2014-05-08T09:14:43Z</time>
      </trkpt>
      <trkpt lat="44.50412" lon="6.68586">
        <ele>2436.6</ele>
        <time>2014-05-08T09:14:45Z</time>
      </trkpt>
      <trkpt lat="44.50413" lon="6.68599">
        <ele>2432</ele>
        <time>2014-05-08T09:15:12Z</time>
      </trkpt>
      <trkpt lat="44.5041" lon="6.68629">
        <ele>2431.8</ele>
        <time>2014-05-08T09:15:26Z</time>
      </trkpt>
      <trkpt lat="44.50408" lon="6.68646">
        <ele>2430.5</ele>
        <time>2014-05-08T09:15:28Z</time>
      </trkpt>
      <trkpt lat="44.50404" lon="6.68665">
        <ele>2429.1</ele>
        <time>2014-05-08T09:15:30Z</time>
      </trkpt>
      <trkpt lat="44.50401" lon="6.68684">
        <ele>2428</ele>
        <time>2014-05-08T09:15:32Z</time>
      </trkpt>
      <trkpt lat="44.50403" lon="6.68701">
        <ele>2426.8</ele>
        <time>2014-05-08T09:15:34Z</time>
      </trkpt>
      <trkpt lat="44.50405" lon="6.68716">
        <ele>2424.1</ele>
        <time>2014-05-08T09:15:40Z</time>
      </trkpt>
      <trkpt lat="44.50404" lon="6.68731">
        <ele>2420.7</ele>
        <time>2014-05-08T09:16:05Z</time>
      </trkpt>
      <trkpt lat="44.50408" lon="6.68745">
        <ele>2418</ele>
        <time>2014-05-08T09:16:09Z</time>
      </trkpt>
      <trkpt lat="44.50414" lon="6.68764">
        <ele>2411.4</ele>
        <time>2014-05-08T09:16:12Z</time>
      </trkpt>
      <trkpt lat="44.50413" lon="6.68784">
        <ele>2407.4</ele>
        <time>2014-05-08T09:16:14Z</time>
      </trkpt>
      <trkpt lat="44.50417" lon="6.68822">
        <ele>2401.9</ele>
        <time>2014-05-08T09:16:18Z</time>
      </trkpt>
      <trkpt lat="44.5042" lon="6.68837">
        <ele>2400.1</ele>
        <time>2014-05-08T09:16:20Z</time>
      </trkpt>
      <trkpt lat="44.50421" lon="6.6885">
        <ele>2398.6</ele>
        <time>2014-05-08T09:16:22Z</time>
      </trkpt>
      <trkpt lat="44.50427" lon="6.68864">
        <ele>2396.9</ele>
        <time>2014-05-08T09:16:24Z</time>
      </trkpt>
      <trkpt lat="44.50433" lon="6.68875">
        <ele>2395.6</ele>
        <time>2014-05-08T09:16:26Z</time>
      </trkpt>
      <trkpt lat="44.50438" lon="6.68886">
        <ele>2395</ele>
        <time>2014-05-08T09:16:28Z</time>
      </trkpt>
      <trkpt lat="44.50444" lon="6.68896">
        <ele>2394.2</ele>
        <time>2014-05-08T09:16:30Z</time>
      </trkpt>
      <trkpt lat="44.50458" lon="6.68896">
        <ele>2392.4</ele>
        <time>2014-05-08T09:16:33Z</time>
      </trkpt>
      <trkpt lat="44.50467" lon="6.68905">
        <ele>2390.8</ele>
        <time>2014-05-08T09:16:35Z</time>
      </trkpt>
      <trkpt lat="44.50478" lon="6.68905">
        <ele>2389</ele>
        <time>2014-05-08T09:16:37Z</time>
      </trkpt>
      <trkpt lat="44.50489" lon="6.68911">
        <ele>2386.8</ele>
        <time>2014-05-08T09:16:39Z</time>
      </trkpt>
      <trkpt lat="44.50497" lon="6.68919">
        <ele>2385.1</ele>
        <time>2014-05-08T09:16:41Z</time>
      </trkpt>
      <trkpt lat="44.50508" lon="6.68913">
        <ele>2381.1</ele>
        <time>2014-05-08T09:17:10Z</time>
      </trkpt>
      <trkpt lat="44.50515" lon="6.68921">
        <ele>2380.9</ele>
        <time>2014-05-08T09:17:12Z</time>
      </trkpt>
      <trkpt lat="44.50526" lon="6.6893">
        <ele>2379.7</ele>
        <time>2014-05-08T09:17:14Z</time>
      </trkpt>
      <trkpt lat="44.5054" lon="6.68936">
        <ele>2378.1</ele>
        <time>2014-05-08T09:17:16Z</time>
      </trkpt>
      <trkpt lat="44.50561" lon="6.68944">
        <ele>2376</ele>
        <time>2014-05-08T09:17:20Z</time>
      </trkpt>
      <trkpt lat="44.50572" lon="6.68949">
        <ele>2375.1</ele>
        <time>2014-05-08T09:17:22Z</time>
      </trkpt>
      <trkpt lat="44.50582" lon="6.68956">
        <ele>2374.5</ele>
        <time>2014-05-08T09:17:24Z</time>
      </trkpt>
      <trkpt lat="44.50592" lon="6.6896">
        <ele>2373.6</ele>
        <time>2014-05-08T09:17:26Z</time>
      </trkpt>
      <trkpt lat="44.506" lon="6.68954">
        <ele>2372.1</ele>
        <time>2014-05-08T09:17:28Z</time>
      </trkpt>
      <trkpt lat="44.50611" lon="6.68955">
        <ele>2370.9</ele>
        <time>2014-05-08T09:17:30Z</time>
      </trkpt>
      <trkpt lat="44.50621" lon="6.68962">
        <ele>2369.6</ele>
        <time>2014-05-08T09:17:32Z</time>
      </trkpt>
      <trkpt lat="44.50632" lon="6.68962">
        <ele>2367.8</ele>
        <time>2014-05-08T09:17:34Z</time>
      </trkpt>
      <trkpt lat="44.50644" lon="6.68956">
        <ele>2365.1</ele>
        <time>2014-05-08T09:17:36Z</time>
      </trkpt>
      <trkpt lat="44.50655" lon="6.68962">
        <ele>2363.1</ele>
        <time>2014-05-08T09:17:38Z</time>
      </trkpt>
      <trkpt lat="44.50661" lon="6.68975">
        <ele>2360.8</ele>
        <time>2014-05-08T09:17:40Z</time>
      </trkpt>
      <trkpt lat="44.50671" lon="6.68979">
        <ele>2359</ele>
        <time>2014-05-08T09:17:42Z</time>
      </trkpt>
      <trkpt lat="44.50682" lon="6.68982">
        <ele>2357.2</ele>
        <time>2014-05-08T09:17:44Z</time>
      </trkpt>
      <trkpt lat="44.50689" lon="6.69">
        <ele>2355.1</ele>
        <time>2014-05-08T09:17:46Z</time>
      </trkpt>
      <trkpt lat="44.507" lon="6.69013">
        <ele>2351.5</ele>
        <time>2014-05-08T09:17:48Z</time>
      </trkpt>
      <trkpt lat="44.50705" lon="6.69029">
        <ele>2348.3</ele>
        <time>2014-05-08T09:17:50Z</time>
      </trkpt>
      <trkpt lat="44.50713" lon="6.69043">
        <ele>2344.8</ele>
        <time>2014-05-08T09:17:52Z</time>
      </trkpt>
      <trkpt lat="44.50718" lon="6.6906">
        <ele>2341.4</ele>
        <time>2014-05-08T09:17:54Z</time>
      </trkpt>
      <trkpt lat="44.50726" lon="6.69077">
        <ele>2339</ele>
        <time>2014-05-08T09:17:56Z</time>
      </trkpt>
      <trkpt lat="44.50734" lon="6.69097">
        <ele>2335.8</ele>
        <time>2014-05-08T09:17:58Z</time>
      </trkpt>
      <trkpt lat="44.50737" lon="6.69118">
        <ele>2332.2</ele>
        <time>2014-05-08T09:18:00Z</time>
      </trkpt>
      <trkpt lat="44.50739" lon="6.69135">
        <ele>2329.7</ele>
        <time>2014-05-08T09:18:02Z</time>
      </trkpt>
      <trkpt lat="44.50742" lon="6.69148">
        <ele>2327.7</ele>
        <time>2014-05-08T09:18:04Z</time>
      </trkpt>
      <trkpt lat="44.50749" lon="6.69161">
        <ele>2324.7</ele>
        <time>2014-05-08T09:18:07Z</time>
      </trkpt>
      <trkpt lat="44.50751" lon="6.69176">
        <ele>2323.7</ele>
        <time>2014-05-08T09:18:09Z</time>
      </trkpt>
      <trkpt lat="44.50762" lon="6.69185">
        <ele>2321.7</ele>
        <time>2014-05-08T09:18:12Z</time>
      </trkpt>
      <trkpt lat="44.50773" lon="6.69197">
        <ele>2318.5</ele>
        <time>2014-05-08T09:18:15Z</time>
      </trkpt>
      <trkpt lat="44.50786" lon="6.69194">
        <ele>2315.1</ele>
        <time>2014-05-08T09:18:18Z</time>
      </trkpt>
      <trkpt lat="44.50809" lon="6.69192">
        <ele>2308.8</ele>
        <time>2014-05-08T09:18:22Z</time>
      </trkpt>
      <trkpt lat="44.50818" lon="6.69203">
        <ele>2306.6</ele>
        <time>2014-05-08T09:18:24Z</time>
      </trkpt>
      <trkpt lat="44.50829" lon="6.69213">
        <ele>2303.7</ele>
        <time>2014-05-08T09:18:26Z</time>
      </trkpt>
      <trkpt lat="44.50838" lon="6.6923">
        <ele>2301.1</ele>
        <time>2014-05-08T09:18:28Z</time>
      </trkpt>
      <trkpt lat="44.50847" lon="6.6925">
        <ele>2298.1</ele>
        <time>2014-05-08T09:18:30Z</time>
      </trkpt>
      <trkpt lat="44.50856" lon="6.69268">
        <ele>2295.7</ele>
        <time>2014-05-08T09:18:32Z</time>
      </trkpt>
      <trkpt lat="44.50865" lon="6.69284">
        <ele>2294</ele>
        <time>2014-05-08T09:18:34Z</time>
      </trkpt>
      <trkpt lat="44.50872" lon="6.69296">
        <ele>2292.8</ele>
        <time>2014-05-08T09:18:36Z</time>
      </trkpt>
      <trkpt lat="44.50877" lon="6.69308">
        <ele>2290.8</ele>
        <time>2014-05-08T09:18:39Z</time>
      </trkpt>
      <trkpt lat="44.50879" lon="6.69321">
        <ele>2290.4</ele>
        <time>2014-05-08T09:18:43Z</time>
      </trkpt>
      <trkpt lat="44.50878" lon="6.69339">
        <ele>2289.7</ele>
        <time>2014-05-08T09:18:47Z</time>
      </trkpt>
      <trkpt lat="44.50875" lon="6.69353">
        <ele>2288.9</ele>
        <time>2014-05-08T09:18:50Z</time>
      </trkpt>
      <trkpt lat="44.5087" lon="6.69368">
        <ele>2288.2</ele>
        <time>2014-05-08T09:18:53Z</time>
      </trkpt>
      <trkpt lat="44.50864" lon="6.69385">
        <ele>2286.3</ele>
        <time>2014-05-08T09:18:56Z</time>
      </trkpt>
      <trkpt lat="44.50859" lon="6.694">
        <ele>2285.2</ele>
        <time>2014-05-08T09:18:59Z</time>
      </trkpt>
      <trkpt lat="44.50855" lon="6.69412">
        <ele>2284.5</ele>
        <time>2014-05-08T09:19:02Z</time>
      </trkpt>
      <trkpt lat="44.50848" lon="6.69421">
        <ele>2284.1</ele>
        <time>2014-05-08T09:19:04Z</time>
      </trkpt>
      <trkpt lat="44.50843" lon="6.69438">
        <ele>2282.9</ele>
        <time>2014-05-08T09:19:06Z</time>
      </trkpt>
      <trkpt lat="44.50839" lon="6.69461">
        <ele>2280.1</ele>
        <time>2014-05-08T09:19:08Z</time>
      </trkpt>
      <trkpt lat="44.50837" lon="6.69477">
        <ele>2277.4</ele>
        <time>2014-05-08T09:19:10Z</time>
      </trkpt>
      <trkpt lat="44.50838" lon="6.6949">
        <ele>2275.9</ele>
        <time>2014-05-08T09:19:15Z</time>
      </trkpt>
      <trkpt lat="44.50846" lon="6.69499">
        <ele>2273.9</ele>
        <time>2014-05-08T09:20:41Z</time>
      </trkpt>
      <trkpt lat="44.50853" lon="6.69524">
        <ele>2273</ele>
        <time>2014-05-08T09:20:46Z</time>
      </trkpt>
      <trkpt lat="44.50853" lon="6.69537">
        <ele>2272.4</ele>
        <time>2014-05-08T09:20:48Z</time>
      </trkpt>
      <trkpt lat="44.50859" lon="6.69547">
        <ele>2270.9</ele>
        <time>2014-05-08T09:20:50Z</time>
      </trkpt>
      <trkpt lat="44.50865" lon="6.69558">
        <ele>2268.6</ele>
        <time>2014-05-08T09:20:52Z</time>
      </trkpt>
      <trkpt lat="44.50873" lon="6.69568">
        <ele>2266.8</ele>
        <time>2014-05-08T09:20:54Z</time>
      </trkpt>
      <trkpt lat="44.50876" lon="6.69583">
        <ele>2265.1</ele>
        <time>2014-05-08T09:20:56Z</time>
      </trkpt>
      <trkpt lat="44.50885" lon="6.6959">
        <ele>2261.7</ele>
        <time>2014-05-08T09:20:58Z</time>
      </trkpt>
      <trkpt lat="44.50893" lon="6.696">
        <ele>2258</ele>
        <time>2014-05-08T09:21:00Z</time>
      </trkpt>
      <trkpt lat="44.50901" lon="6.69604">
        <ele>2254.2</ele>
        <time>2014-05-08T09:21:02Z</time>
      </trkpt>
      <trkpt lat="44.50905" lon="6.69617">
        <ele>2248.8</ele>
        <time>2014-05-08T09:21:05Z</time>
      </trkpt>
      <trkpt lat="44.50914" lon="6.69626">
        <ele>2242.1</ele>
        <time>2014-05-08T09:21:23Z</time>
      </trkpt>
      <trkpt lat="44.50927" lon="6.69621">
        <ele>2241.5</ele>
        <time>2014-05-08T09:21:26Z</time>
      </trkpt>
      <trkpt lat="44.50939" lon="6.69624">
        <ele>2237.9</ele>
        <time>2014-05-08T09:21:29Z</time>
      </trkpt>
      <trkpt lat="44.50951" lon="6.6963">
        <ele>2233.9</ele>
        <time>2014-05-08T09:21:32Z</time>
      </trkpt>
      <trkpt lat="44.50961" lon="6.69629">
        <ele>2231.4</ele>
        <time>2014-05-08T09:21:34Z</time>
      </trkpt>
      <trkpt lat="44.50969" lon="6.69642">
        <ele>2224.9</ele>
        <time>2014-05-08T09:21:37Z</time>
      </trkpt>
      <trkpt lat="44.50978" lon="6.69642">
        <ele>2221.8</ele>
        <time>2014-05-08T09:21:39Z</time>
      </trkpt>
      <trkpt lat="44.50988" lon="6.69641">
        <ele>2218.2</ele>
        <time>2014-05-08T09:21:41Z</time>
      </trkpt>
      <trkpt lat="44.50998" lon="6.69633">
        <ele>2213.4</ele>
        <time>2014-05-08T09:21:44Z</time>
      </trkpt>
      <trkpt lat="44.5102" lon="6.69631">
        <ele>2206.4</ele>
        <time>2014-05-08T09:21:49Z</time>
      </trkpt>
      <trkpt lat="44.5103" lon="6.69638">
        <ele>2203.7</ele>
        <time>2014-05-08T09:21:51Z</time>
      </trkpt>
      <trkpt lat="44.5104" lon="6.69639">
        <ele>2199.8</ele>
        <time>2014-05-08T09:21:53Z</time>
      </trkpt>
      <trkpt lat="44.51048" lon="6.69647">
        <ele>2195.6</ele>
        <time>2014-05-08T09:21:55Z</time>
      </trkpt>
      <trkpt lat="44.51059" lon="6.69644">
        <ele>2192.1</ele>
        <time>2014-05-08T09:21:57Z</time>
      </trkpt>
      <trkpt lat="44.5107" lon="6.69649">
        <ele>2187.3</ele>
        <time>2014-05-08T09:21:59Z</time>
      </trkpt>
      <trkpt lat="44.5108" lon="6.69656">
        <ele>2182.1</ele>
        <time>2014-05-08T09:22:01Z</time>
      </trkpt>
      <trkpt lat="44.51091" lon="6.69663">
        <ele>2178.4</ele>
        <time>2014-05-08T09:22:03Z</time>
      </trkpt>
      <trkpt lat="44.51102" lon="6.69667">
        <ele>2174.4</ele>
        <time>2014-05-08T09:22:05Z</time>
      </trkpt>
      <trkpt lat="44.51113" lon="6.69666">
        <ele>2170.7</ele>
        <time>2014-05-08T09:22:07Z</time>
      </trkpt>
      <trkpt lat="44.51122" lon="6.69676">
        <ele>2166.9</ele>
        <time>2014-05-08T09:22:09Z</time>
      </trkpt>
      <trkpt lat="44.51133" lon="6.69679">
        <ele>2163.7</ele>
        <time>2014-05-08T09:22:11Z</time>
      </trkpt>
      <trkpt lat="44.51143" lon="6.69686">
        <ele>2159.9</ele>
        <time>2014-05-08T09:22:13Z</time>
      </trkpt>
      <trkpt lat="44.51152" lon="6.69695">
        <ele>2156</ele>
        <time>2014-05-08T09:22:15Z</time>
      </trkpt>
      <trkpt lat="44.51163" lon="6.69692">
        <ele>2153.1</ele>
        <time>2014-05-08T09:22:17Z</time>
      </trkpt>
      <trkpt lat="44.51171" lon="6.69701">
        <ele>2149.3</ele>
        <time>2014-05-08T09:22:19Z</time>
      </trkpt>
      <trkpt lat="44.51182" lon="6.69707">
        <ele>2144.3</ele>
        <time>2014-05-08T09:22:22Z</time>
      </trkpt>
      <trkpt lat="44.51192" lon="6.69706">
        <ele>2140.1</ele>
        <time>2014-05-08T09:22:25Z</time>
      </trkpt>
      <trkpt lat="44.51202" lon="6.69704">
        <ele>2137.7</ele>
        <time>2014-05-08T09:22:29Z</time>
      </trkpt>
      <trkpt lat="44.51201" lon="6.69717">
        <ele>2132.9</ele>
        <time>2014-05-08T09:22:53Z</time>
      </trkpt>
      <trkpt lat="44.512" lon="6.69741">
        <ele>2123.7</ele>
        <time>2014-05-08T09:23:06Z</time>
      </trkpt>
      <trkpt lat="44.512" lon="6.69754">
        <ele>2120</ele>
        <time>2014-05-08T09:23:09Z</time>
      </trkpt>
      <trkpt lat="44.51209" lon="6.69755">
        <ele>2116.8</ele>
        <time>2014-05-08T09:23:11Z</time>
      </trkpt>
      <trkpt lat="44.51218" lon="6.69751">
        <ele>2112.2</ele>
        <time>2014-05-08T09:23:13Z</time>
      </trkpt>
      <trkpt lat="44.51229" lon="6.6975">
        <ele>2109</ele>
        <time>2014-05-08T09:23:16Z</time>
      </trkpt>
      <trkpt lat="44.51237" lon="6.69759">
        <ele>2106.4</ele>
        <time>2014-05-08T09:23:18Z</time>
      </trkpt>
      <trkpt lat="44.51246" lon="6.69763">
        <ele>2103.7</ele>
        <time>2014-05-08T09:23:20Z</time>
      </trkpt>
      <trkpt lat="44.51256" lon="6.69767">
        <ele>2099.7</ele>
        <time>2014-05-08T09:23:22Z</time>
      </trkpt>
      <trkpt lat="44.51267" lon="6.69764">
        <ele>2095.9</ele>
        <time>2014-05-08T09:23:24Z</time>
      </trkpt>
      <trkpt lat="44.51281" lon="6.6977">
        <ele>2092.2</ele>
        <time>2014-05-08T09:23:27Z</time>
      </trkpt>
      <trkpt lat="44.51291" lon="6.6977">
        <ele>2089.7</ele>
        <time>2014-05-08T09:23:29Z</time>
      </trkpt>
      <trkpt lat="44.51302" lon="6.69772">
        <ele>2085.8</ele>
        <time>2014-05-08T09:23:32Z</time>
      </trkpt>
      <trkpt lat="44.51314" lon="6.69777">
        <ele>2083</ele>
        <time>2014-05-08T09:23:35Z</time>
      </trkpt>
      <trkpt lat="44.51323" lon="6.69774">
        <ele>2079.8</ele>
        <time>2014-05-08T09:23:38Z</time>
      </trkpt>
      <trkpt lat="44.51334" lon="6.69776">
        <ele>2073.9</ele>
        <time>2014-05-08T09:24:03Z</time>
      </trkpt>
      <trkpt lat="44.51343" lon="6.698">
        <ele>2069.7</ele>
        <time>2014-05-08T09:24:08Z</time>
      </trkpt>
      <trkpt lat="44.51355" lon="6.69807">
        <ele>2066.2</ele>
        <time>2014-05-08T09:24:11Z</time>
      </trkpt>
      <trkpt lat="44.51365" lon="6.69811">
        <ele>2063.7</ele>
        <time>2014-05-08T09:24:14Z</time>
      </trkpt>
      <trkpt lat="44.51374" lon="6.69812">
        <ele>2061.8</ele>
        <time>2014-05-08T09:24:17Z</time>
      </trkpt>
      <trkpt lat="44.51384" lon="6.69815">
        <ele>2058.4</ele>
        <time>2014-05-08T09:24:20Z</time>
      </trkpt>
      <trkpt lat="44.51393" lon="6.69822">
        <ele>2056.8</ele>
        <time>2014-05-08T09:24:22Z</time>
      </trkpt>
      <trkpt lat="44.51402" lon="6.6983">
        <ele>2054</ele>
        <time>2014-05-08T09:24:25Z</time>
      </trkpt>
      <trkpt lat="44.5141" lon="6.69838">
        <ele>2050.8</ele>
        <time>2014-05-08T09:24:28Z</time>
      </trkpt>
      <trkpt lat="44.5142" lon="6.6984">
        <ele>2048.4</ele>
        <time>2014-05-08T09:24:31Z</time>
      </trkpt>
      <trkpt lat="44.5143" lon="6.69842">
        <ele>2045.3</ele>
        <time>2014-05-08T09:24:34Z</time>
      </trkpt>
      <trkpt lat="44.51439" lon="6.69845">
        <ele>2043.2</ele>
        <time>2014-05-08T09:24:36Z</time>
      </trkpt>
      <trkpt lat="44.51447" lon="6.69852">
        <ele>2040.9</ele>
        <time>2014-05-08T09:24:38Z</time>
      </trkpt>
      <trkpt lat="44.51456" lon="6.6986">
        <ele>2038.7</ele>
        <time>2014-05-08T09:24:40Z</time>
      </trkpt>
      <trkpt lat="44.51464" lon="6.69873">
        <ele>2035.8</ele>
        <time>2014-05-08T09:24:43Z</time>
      </trkpt>
      <trkpt lat="44.51473" lon="6.69886">
        <ele>2033.7</ele>
        <time>2014-05-08T09:24:46Z</time>
      </trkpt>
      <trkpt lat="44.51479" lon="6.69897">
        <ele>2031.3</ele>
        <time>2014-05-08T09:24:49Z</time>
      </trkpt>
      <trkpt lat="44.51484" lon="6.6991">
        <ele>2028.8</ele>
        <time>2014-05-08T09:24:52Z</time>
      </trkpt>
      <trkpt lat="44.51493" lon="6.69919">
        <ele>2025.3</ele>
        <time>2014-05-08T09:24:55Z</time>
      </trkpt>
      <trkpt lat="44.51495" lon="6.69934">
        <ele>2022.4</ele>
        <time>2014-05-08T09:24:58Z</time>
      </trkpt>
      <trkpt lat="44.51501" lon="6.69948">
        <ele>2020.1</ele>
        <time>2014-05-08T09:25:01Z</time>
      </trkpt>
      <trkpt lat="44.51508" lon="6.69956">
        <ele>2015.1</ele>
        <time>2014-05-08T09:26:30Z</time>
      </trkpt>
      <trkpt lat="44.51518" lon="6.69981">
        <ele>2012</ele>
        <time>2014-05-08T09:26:35Z</time>
      </trkpt>
      <trkpt lat="44.51525" lon="6.69993">
        <ele>2010.1</ele>
        <time>2014-05-08T09:26:37Z</time>
      </trkpt>
      <trkpt lat="44.5153" lon="6.70009">
        <ele>2007.2</ele>
        <time>2014-05-08T09:26:40Z</time>
      </trkpt>
      <trkpt lat="44.51539" lon="6.70022">
        <ele>2004.5</ele>
        <time>2014-05-08T09:26:43Z</time>
      </trkpt>
      <trkpt lat="44.51545" lon="6.70031">
        <ele>2001.9</ele>
        <time>2014-05-08T09:26:45Z</time>
      </trkpt>
      <trkpt lat="44.51551" lon="6.70042">
        <ele>2000</ele>
        <time>2014-05-08T09:26:47Z</time>
      </trkpt>
      <trkpt lat="44.51556" lon="6.70053">
        <ele>1997.3</ele>
        <time>2014-05-08T09:26:49Z</time>
      </trkpt>
      <trkpt lat="44.51562" lon="6.70064">
        <ele>1995.7</ele>
        <time>2014-05-08T09:26:51Z</time>
      </trkpt>
      <trkpt lat="44.51568" lon="6.70075">
        <ele>1993.7</ele>
        <time>2014-05-08T09:26:53Z</time>
      </trkpt>
      <trkpt lat="44.5157" lon="6.70091">
        <ele>1991</ele>
        <time>2014-05-08T09:26:56Z</time>
      </trkpt>
      <trkpt lat="44.51574" lon="6.70104">
        <ele>1989.2</ele>
        <time>2014-05-08T09:26:59Z</time>
      </trkpt>
      <trkpt lat="44.51582" lon="6.70111">
        <ele>1987.4</ele>
        <time>2014-05-08T09:27:01Z</time>
      </trkpt>
      <trkpt lat="44.51592" lon="6.70119">
        <ele>1984.9</ele>
        <time>2014-05-08T09:27:04Z</time>
      </trkpt>
      <trkpt lat="44.51599" lon="6.70131">
        <ele>1983.3</ele>
        <time>2014-05-08T09:27:07Z</time>
      </trkpt>
      <trkpt lat="44.51604" lon="6.70142">
        <ele>1982.1</ele>
        <time>2014-05-08T09:27:11Z</time>
      </trkpt>
      <trkpt lat="44.5161" lon="6.70153">
        <ele>1980.4</ele>
        <time>2014-05-08T09:27:15Z</time>
      </trkpt>
      <trkpt lat="44.51615" lon="6.70165">
        <ele>1980</ele>
        <time>2014-05-08T09:27:18Z</time>
      </trkpt>
      <trkpt lat="44.5162" lon="6.70178">
        <ele>1979.8</ele>
        <time>2014-05-08T09:27:21Z</time>
      </trkpt>
      <trkpt lat="44.51629" lon="6.70189">
        <ele>1977.4</ele>
        <time>2014-05-08T09:27:24Z</time>
      </trkpt>
      <trkpt lat="44.51641" lon="6.70188">
        <ele>1975.1</ele>
        <time>2014-05-08T09:27:27Z</time>
      </trkpt>
      <trkpt lat="44.51649" lon="6.70202">
        <ele>1972.4</ele>
        <time>2014-05-08T09:27:30Z</time>
      </trkpt>
      <trkpt lat="44.51655" lon="6.70217">
        <ele>1970.1</ele>
        <time>2014-05-08T09:27:33Z</time>
      </trkpt>
      <trkpt lat="44.51673" lon="6.70228">
        <ele>1964.9</ele>
        <time>2014-05-08T09:27:41Z</time>
      </trkpt>
      <trkpt lat="44.51683" lon="6.70226">
        <ele>1963.4</ele>
        <time>2014-05-08T09:27:44Z</time>
      </trkpt>
      <trkpt lat="44.51687" lon="6.70241">
        <ele>1959.7</ele>
        <time>2014-05-08T09:27:53Z</time>
      </trkpt>
      <trkpt lat="44.51688" lon="6.70255">
        <ele>1957.6</ele>
        <time>2014-05-08T09:27:58Z</time>
      </trkpt>
      <trkpt lat="44.51689" lon="6.70271">
        <ele>1957.7</ele>
        <time>2014-05-08T09:28:02Z</time>
      </trkpt>
      <trkpt lat="44.51695" lon="6.70284">
        <ele>1956.2</ele>
        <time>2014-05-08T09:28:06Z</time>
      </trkpt>
      <trkpt lat="44.51699" lon="6.70297">
        <ele>1955.7</ele>
        <time>2014-05-08T09:28:10Z</time>
      </trkpt>
      <trkpt lat="44.5171" lon="6.70304">
        <ele>1953.8</ele>
        <time>2014-05-08T09:28:14Z</time>
      </trkpt>
      <trkpt lat="44.51715" lon="6.70317">
        <ele>1951.7</ele>
        <time>2014-05-08T09:28:17Z</time>
      </trkpt>
      <trkpt lat="44.51724" lon="6.70324">
        <ele>1951.5</ele>
        <time>2014-05-08T09:28:20Z</time>
      </trkpt>
      <trkpt lat="44.51735" lon="6.70327">
        <ele>1949.8</ele>
        <time>2014-05-08T09:28:22Z</time>
      </trkpt>
      <trkpt lat="44.51745" lon="6.70333">
        <ele>1948.1</ele>
        <time>2014-05-08T09:28:24Z</time>
      </trkpt>
      <trkpt lat="44.51754" lon="6.70337">
        <ele>1946.6</ele>
        <time>2014-05-08T09:28:26Z</time>
      </trkpt>
      <trkpt lat="44.51766" lon="6.70344">
        <ele>1944.4</ele>
        <time>2014-05-08T09:28:29Z</time>
      </trkpt>
      <trkpt lat="44.51777" lon="6.70343">
        <ele>1942.6</ele>
        <time>2014-05-08T09:28:32Z</time>
      </trkpt>
      <trkpt lat="44.51786" lon="6.70351">
        <ele>1939.3</ele>
        <time>2014-05-08T09:28:35Z</time>
      </trkpt>
      <trkpt lat="44.51807" lon="6.70362">
        <ele>1933.5</ele>
        <time>2014-05-08T09:28:41Z</time>
      </trkpt>
      <trkpt lat="44.51816" lon="6.70371">
        <ele>1930.6</ele>
        <time>2014-05-08T09:28:44Z</time>
      </trkpt>
      <trkpt lat="44.51826" lon="6.70377">
        <ele>1927.3</ele>
        <time>2014-05-08T09:28:47Z</time>
      </trkpt>
      <trkpt lat="44.51833" lon="6.70385">
        <ele>1925.8</ele>
        <time>2014-05-08T09:28:49Z</time>
      </trkpt>
      <trkpt lat="44.51842" lon="6.70394">
        <ele>1921.5</ele>
        <time>2014-05-08T09:28:52Z</time>
      </trkpt>
      <trkpt lat="44.51852" lon="6.70398">
        <ele>1919.2</ele>
        <time>2014-05-08T09:28:54Z</time>
      </trkpt>
      <trkpt lat="44.51859" lon="6.7041">
        <ele>1914.4</ele>
        <time>2014-05-08T09:28:58Z</time>
      </trkpt>
      <trkpt lat="44.51865" lon="6.70421">
        <ele>1913.1</ele>
        <time>2014-05-08T09:29:02Z</time>
      </trkpt>
      <trkpt lat="44.51873" lon="6.70432">
        <ele>1911.6</ele>
        <time>2014-05-08T09:29:07Z</time>
      </trkpt>
      <trkpt lat="44.51879" lon="6.70445">
        <ele>1911.3</ele>
        <time>2014-05-08T09:29:11Z</time>
      </trkpt>
      <trkpt lat="44.51883" lon="6.70458">
        <ele>1909.6</ele>
        <time>2014-05-08T09:29:14Z</time>
      </trkpt>
      <trkpt lat="44.51889" lon="6.70469">
        <ele>1907.9</ele>
        <time>2014-05-08T09:29:17Z</time>
      </trkpt>
      <trkpt lat="44.51894" lon="6.7048">
        <ele>1906.3</ele>
        <time>2014-05-08T09:29:20Z</time>
      </trkpt>
      <trkpt lat="44.51898" lon="6.70494">
        <ele>1905</ele>
        <time>2014-05-08T09:29:34Z</time>
      </trkpt>
      <trkpt lat="44.51905" lon="6.70504">
        <ele>1903</ele>
        <time>2014-05-08T09:29:38Z</time>
      </trkpt>
      <trkpt lat="44.51914" lon="6.70528">
        <ele>1899.9</ele>
        <time>2014-05-08T09:29:44Z</time>
      </trkpt>
      <trkpt lat="44.51923" lon="6.70523">
        <ele>1894.7</ele>
        <time>2014-05-08T09:29:56Z</time>
      </trkpt>
      <trkpt lat="44.51933" lon="6.70522">
        <ele>1892.4</ele>
        <time>2014-05-08T09:30:00Z</time>
      </trkpt>
      <trkpt lat="44.51938" lon="6.70533">
        <ele>1888.8</ele>
        <time>2014-05-08T09:30:04Z</time>
      </trkpt>
      <trkpt lat="44.51948" lon="6.70534">
        <ele>1884.8</ele>
        <time>2014-05-08T09:30:09Z</time>
      </trkpt>
      <trkpt lat="44.51952" lon="6.70522">
        <ele>1880.8</ele>
        <time>2014-05-08T09:33:00Z</time>
      </trkpt>
      <trkpt lat="44.51981" lon="6.70527">
        <ele>1882.1</ele>
        <time>2014-05-08T09:36:42Z</time>
      </trkpt>
      <trkpt lat="44.5199" lon="6.70529">
        <ele>1882.3</ele>
        <time>2014-05-08T09:36:52Z</time>
      </trkpt>
      <trkpt lat="44.51999" lon="6.70533">
        <ele>1882.8</ele>
        <time>2014-05-08T09:37:01Z</time>
      </trkpt>
      <trkpt lat="44.52008" lon="6.70534">
        <ele>1883</ele>
        <time>2014-05-08T09:37:13Z</time>
      </trkpt>
      <trkpt lat="44.52018" lon="6.70536">
        <ele>1884.2</ele>
        <time>2014-05-08T09:37:25Z</time>
      </trkpt>
      <trkpt lat="44.52027" lon="6.7054">
        <ele>1885.1</ele>
        <time>2014-05-08T09:37:35Z</time>
      </trkpt>
      <trkpt lat="44.52045" lon="6.70542">
        <ele>1887.5</ele>
        <time>2014-05-08T09:37:54Z</time>
      </trkpt>
      <trkpt lat="44.52054" lon="6.70547">
        <ele>1888.3</ele>
        <time>2014-05-08T09:38:03Z</time>
      </trkpt>
      <trkpt lat="44.52062" lon="6.70556">
        <ele>1888.8</ele>
        <time>2014-05-08T09:38:12Z</time>
      </trkpt>
      <trkpt lat="44.5207" lon="6.70564">
        <ele>1888.9</ele>
        <time>2014-05-08T09:38:20Z</time>
      </trkpt>
      <trkpt lat="44.52078" lon="6.7057">
        <ele>1890.1</ele>
        <time>2014-05-08T09:38:28Z</time>
      </trkpt>
      <trkpt lat="44.52087" lon="6.70575">
        <ele>1891</ele>
        <time>2014-05-08T09:38:37Z</time>
      </trkpt>
      <trkpt lat="44.52104" lon="6.70583">
        <ele>1892.6</ele>
        <time>2014-05-08T09:38:56Z</time>
      </trkpt>
      <trkpt lat="44.52113" lon="6.70588">
        <ele>1893.3</ele>
        <time>2014-05-08T09:39:06Z</time>
      </trkpt>
      <trkpt lat="44.52122" lon="6.70591">
        <ele>1895.4</ele>
        <time>2014-05-08T09:39:17Z</time>
      </trkpt>
      <trkpt lat="44.52132" lon="6.70595">
        <ele>1895.6</ele>
        <time>2014-05-08T09:39:28Z</time>
      </trkpt>
      <trkpt lat="44.5214" lon="6.706">
        <ele>1896.6</ele>
        <time>2014-05-08T09:39:38Z</time>
      </trkpt>
      <trkpt lat="44.52157" lon="6.70609">
        <ele>1899.8</ele>
        <time>2014-05-08T09:40:00Z</time>
      </trkpt>
      <trkpt lat="44.52166" lon="6.70614">
        <ele>1901.1</ele>
        <time>2014-05-08T09:40:11Z</time>
      </trkpt>
      <trkpt lat="44.52174" lon="6.70621">
        <ele>1902.9</ele>
        <time>2014-05-08T09:40:22Z</time>
      </trkpt>
      <trkpt lat="44.52184" lon="6.70626">
        <ele>1903.7</ele>
        <time>2014-05-08T09:40:33Z</time>
      </trkpt>
      <trkpt lat="44.52192" lon="6.70632">
        <ele>1904.3</ele>
        <time>2014-05-08T09:40:43Z</time>
      </trkpt>
      <trkpt lat="44.52209" lon="6.70646">
        <ele>1908.2</ele>
        <time>2014-05-08T09:41:04Z</time>
      </trkpt>
      <trkpt lat="44.52217" lon="6.70652">
        <ele>1908.3</ele>
        <time>2014-05-08T09:41:14Z</time>
      </trkpt>
      <trkpt lat="44.52225" lon="6.7066">
        <ele>1910.4</ele>
        <time>2014-05-08T09:41:24Z</time>
      </trkpt>
      <trkpt lat="44.52233" lon="6.70667">
        <ele>1911</ele>
        <time>2014-05-08T09:41:34Z</time>
      </trkpt>
      <trkpt lat="44.5224" lon="6.70675">
        <ele>1910.8</ele>
        <time>2014-05-08T09:41:43Z</time>
      </trkpt>
      <trkpt lat="44.52248" lon="6.70683">
        <ele>1913.6</ele>
        <time>2014-05-08T09:41:53Z</time>
      </trkpt>
      <trkpt lat="44.52265" lon="6.70695">
        <ele>1914.1</ele>
        <time>2014-05-08T09:42:11Z</time>
      </trkpt>
      <trkpt lat="44.52274" lon="6.70697">
        <ele>1915.6</ele>
        <time>2014-05-08T09:42:21Z</time>
      </trkpt>
      <trkpt lat="44.52284" lon="6.70697">
        <ele>1916</ele>
        <time>2014-05-08T09:42:33Z</time>
      </trkpt>
      <trkpt lat="44.52294" lon="6.70693">
        <ele>1916.9</ele>
        <time>2014-05-08T09:42:43Z</time>
      </trkpt>
      <trkpt lat="44.52303" lon="6.70689">
        <ele>1917.2</ele>
        <time>2014-05-08T09:42:52Z</time>
      </trkpt>
      <trkpt lat="44.52311" lon="6.70683">
        <ele>1918.9</ele>
        <time>2014-05-08T09:43:01Z</time>
      </trkpt>
      <trkpt lat="44.52327" lon="6.70669">
        <ele>1920.2</ele>
        <time>2014-05-08T09:43:18Z</time>
      </trkpt>
      <trkpt lat="44.52335" lon="6.70662">
        <ele>1921.8</ele>
        <time>2014-05-08T09:43:28Z</time>
      </trkpt>
      <trkpt lat="44.52344" lon="6.70656">
        <ele>1922.8</ele>
        <time>2014-05-08T09:43:38Z</time>
      </trkpt>
      <trkpt lat="44.52353" lon="6.70653">
        <ele>1923.8</ele>
        <time>2014-05-08T09:43:48Z</time>
      </trkpt>
      <trkpt lat="44.52363" lon="6.70654">
        <ele>1925.3</ele>
        <time>2014-05-08T09:43:58Z</time>
      </trkpt>
      <trkpt lat="44.52372" lon="6.70653">
        <ele>1925.9</ele>
        <time>2014-05-08T09:44:06Z</time>
      </trkpt>
      <trkpt lat="44.52392" lon="6.70649">
        <ele>1927.8</ele>
        <time>2014-05-08T09:44:25Z</time>
      </trkpt>
      <trkpt lat="44.524" lon="6.70645">
        <ele>1928.9</ele>
        <time>2014-05-08T09:44:33Z</time>
      </trkpt>
      <trkpt lat="44.52409" lon="6.70642">
        <ele>1930.7</ele>
        <time>2014-05-08T09:44:42Z</time>
      </trkpt>
      <trkpt lat="44.52419" lon="6.70642">
        <ele>1930.1</ele>
        <time>2014-05-08T09:44:51Z</time>
      </trkpt>
      <trkpt lat="44.52429" lon="6.70643">
        <ele>1931.8</ele>
        <time>2014-05-08T09:45:00Z</time>
      </trkpt>
      <trkpt lat="44.52437" lon="6.70649">
        <ele>1932.4</ele>
        <time>2014-05-08T09:45:09Z</time>
      </trkpt>
      <trkpt lat="44.52456" lon="6.70653">
        <ele>1934.6</ele>
        <time>2014-05-08T09:45:29Z</time>
      </trkpt>
      <trkpt lat="44.52465" lon="6.70649">
        <ele>1935</ele>
        <time>2014-05-08T09:45:39Z</time>
      </trkpt>
      <trkpt lat="44.52473" lon="6.70643">
        <ele>1937.2</ele>
        <time>2014-05-08T09:45:50Z</time>
      </trkpt>
      <trkpt lat="44.52481" lon="6.70637">
        <ele>1937.3</ele>
        <time>2014-05-08T09:46:01Z</time>
      </trkpt>
      <trkpt lat="44.52489" lon="6.70629">
        <ele>1938.9</ele>
        <time>2014-05-08T09:46:11Z</time>
      </trkpt>
      <trkpt lat="44.52504" lon="6.70614">
        <ele>1942.3</ele>
        <time>2014-05-08T09:46:31Z</time>
      </trkpt>
      <trkpt lat="44.52513" lon="6.70612">
        <ele>1942.6</ele>
        <time>2014-05-08T09:46:40Z</time>
      </trkpt>
      <trkpt lat="44.52523" lon="6.70612">
        <ele>1942.9</ele>
        <time>2014-05-08T09:46:49Z</time>
      </trkpt>
      <trkpt lat="44.52532" lon="6.70612">
        <ele>1944.6</ele>
        <time>2014-05-08T09:46:57Z</time>
      </trkpt>
      <trkpt lat="44.52541" lon="6.70613">
        <ele>1945.9</ele>
        <time>2014-05-08T09:47:05Z</time>
      </trkpt>
      <trkpt lat="44.52551" lon="6.70616">
        <ele>1946.8</ele>
        <time>2014-05-08T09:47:14Z</time>
      </trkpt>
      <trkpt lat="44.5257" lon="6.70613">
        <ele>1948.6</ele>
        <time>2014-05-08T09:47:32Z</time>
      </trkpt>
      <trkpt lat="44.52579" lon="6.70609">
        <ele>1948.8</ele>
        <time>2014-05-08T09:47:41Z</time>
      </trkpt>
      <trkpt lat="44.52587" lon="6.70603">
        <ele>1949.7</ele>
        <time>2014-05-08T09:47:49Z</time>
      </trkpt>
      <trkpt lat="44.52596" lon="6.70598">
        <ele>1950.3</ele>
        <time>2014-05-08T09:47:58Z</time>
      </trkpt>
      <trkpt lat="44.52605" lon="6.70595">
        <ele>1952.9</ele>
        <time>2014-05-08T09:48:08Z</time>
      </trkpt>
      <trkpt lat="44.52614" lon="6.7059">
        <ele>1952.6</ele>
        <time>2014-05-08T09:48:17Z</time>
      </trkpt>
      <trkpt lat="44.52633" lon="6.70584">
        <ele>1954.7</ele>
        <time>2014-05-08T09:48:36Z</time>
      </trkpt>
      <trkpt lat="44.52641" lon="6.7058">
        <ele>1956.5</ele>
        <time>2014-05-08T09:48:45Z</time>
      </trkpt>
      <trkpt lat="44.5265" lon="6.70577">
        <ele>1957.3</ele>
        <time>2014-05-08T09:48:53Z</time>
      </trkpt>
      <trkpt lat="44.52658" lon="6.7057">
        <ele>1957.8</ele>
        <time>2014-05-08T09:49:02Z</time>
      </trkpt>
      <trkpt lat="44.52666" lon="6.70563">
        <ele>1958.9</ele>
        <time>2014-05-08T09:49:12Z</time>
      </trkpt>
      <trkpt lat="44.52674" lon="6.70555">
        <ele>1961.3</ele>
        <time>2014-05-08T09:49:21Z</time>
      </trkpt>
      <trkpt lat="44.52686" lon="6.70534">
        <ele>1961.6</ele>
        <time>2014-05-08T09:50:25Z</time>
      </trkpt>
      <trkpt lat="44.52695" lon="6.70511">
        <ele>1964.8</ele>
        <time>2014-05-08T09:51:14Z</time>
      </trkpt>
      <trkpt lat="44.527" lon="6.705">
        <ele>1965.1</ele>
        <time>2014-05-08T09:51:25Z</time>
      </trkpt>
      <trkpt lat="44.52704" lon="6.70489">
        <ele>1966.4</ele>
        <time>2014-05-08T09:51:35Z</time>
      </trkpt>
      <trkpt lat="44.52711" lon="6.70465">
        <ele>1969</ele>
        <time>2014-05-08T09:51:58Z</time>
      </trkpt>
      <trkpt lat="44.5272" lon="6.7046">
        <ele>1969.9</ele>
        <time>2014-05-08T09:52:09Z</time>
      </trkpt>
      <trkpt lat="44.52729" lon="6.70459">
        <ele>1970.8</ele>
        <time>2014-05-08T09:52:18Z</time>
      </trkpt>
      <trkpt lat="44.52738" lon="6.70458">
        <ele>1972.1</ele>
        <time>2014-05-08T09:52:27Z</time>
      </trkpt>
      <trkpt lat="44.52747" lon="6.70459">
        <ele>1974.1</ele>
        <time>2014-05-08T09:52:36Z</time>
      </trkpt>
      <trkpt lat="44.52766" lon="6.70462">
        <ele>1976.2</ele>
        <time>2014-05-08T09:52:55Z</time>
      </trkpt>
      <trkpt lat="44.52775" lon="6.70458">
        <ele>1976.2</ele>
        <time>2014-05-08T09:53:03Z</time>
      </trkpt>
      <trkpt lat="44.52783" lon="6.70454">
        <ele>1976.6</ele>
        <time>2014-05-08T09:53:11Z</time>
      </trkpt>
      <trkpt lat="44.52791" lon="6.70448">
        <ele>1978.2</ele>
        <time>2014-05-08T09:53:19Z</time>
      </trkpt>
      <trkpt lat="44.52799" lon="6.70442">
        <ele>1979.4</ele>
        <time>2014-05-08T09:53:27Z</time>
      </trkpt>
      <trkpt lat="44.52808" lon="6.70435">
        <ele>1979.6</ele>
        <time>2014-05-08T09:53:35Z</time>
      </trkpt>
      <trkpt lat="44.52816" lon="6.70427">
        <ele>1981.4</ele>
        <time>2014-05-08T09:53:43Z</time>
      </trkpt>
      <trkpt lat="44.52832" lon="6.70413">
        <ele>1983.7</ele>
        <time>2014-05-08T09:54:02Z</time>
      </trkpt>
      <trkpt lat="44.52841" lon="6.70407">
        <ele>1985.1</ele>
        <time>2014-05-08T09:54:12Z</time>
      </trkpt>
      <trkpt lat="44.52849" lon="6.704">
        <ele>1986</ele>
        <time>2014-05-08T09:54:21Z</time>
      </trkpt>
      <trkpt lat="44.52856" lon="6.70391">
        <ele>1986.4</ele>
        <time>2014-05-08T09:54:29Z</time>
      </trkpt>
      <trkpt lat="44.52863" lon="6.70382">
        <ele>1986.6</ele>
        <time>2014-05-08T09:54:37Z</time>
      </trkpt>
      <trkpt lat="44.5287" lon="6.70373">
        <ele>1988.9</ele>
        <time>2014-05-08T09:54:46Z</time>
      </trkpt>
      <trkpt lat="44.52884" lon="6.70356">
        <ele>1991</ele>
        <time>2014-05-08T09:55:06Z</time>
      </trkpt>
      <trkpt lat="44.52892" lon="6.7035">
        <ele>1991.7</ele>
        <time>2014-05-08T09:55:17Z</time>
      </trkpt>
      <trkpt lat="44.529" lon="6.70344">
        <ele>1992.4</ele>
        <time>2014-05-08T09:55:26Z</time>
      </trkpt>
      <trkpt lat="44.52908" lon="6.70337">
        <ele>1992.6</ele>
        <time>2014-05-08T09:55:35Z</time>
      </trkpt>
      <trkpt lat="44.52916" lon="6.70329">
        <ele>1994.3</ele>
        <time>2014-05-08T09:55:44Z</time>
      </trkpt>
      <trkpt lat="44.52923" lon="6.70321">
        <ele>1995.7</ele>
        <time>2014-05-08T09:55:54Z</time>
      </trkpt>
      <trkpt lat="44.52937" lon="6.70302">
        <ele>1997.3</ele>
        <time>2014-05-08T09:56:12Z</time>
      </trkpt>
      <trkpt lat="44.52942" lon="6.70292">
        <ele>1999.2</ele>
        <time>2014-05-08T09:56:22Z</time>
      </trkpt>
      <trkpt lat="44.52948" lon="6.70282">
        <ele>1999.8</ele>
        <time>2014-05-08T09:56:32Z</time>
      </trkpt>
      <trkpt lat="44.52955" lon="6.70273">
        <ele>2000.7</ele>
        <time>2014-05-08T09:56:41Z</time>
      </trkpt>
      <trkpt lat="44.52963" lon="6.70265">
        <ele>2000.2</ele>
        <time>2014-05-08T09:56:49Z</time>
      </trkpt>
      <trkpt lat="44.5297" lon="6.70255">
        <ele>2002.6</ele>
        <time>2014-05-08T09:56:58Z</time>
      </trkpt>
      <trkpt lat="44.52987" lon="6.70242">
        <ele>2004.1</ele>
        <time>2014-05-08T09:57:15Z</time>
      </trkpt>
      <trkpt lat="44.52995" lon="6.70236">
        <ele>2005.8</ele>
        <time>2014-05-08T09:57:23Z</time>
      </trkpt>
      <trkpt lat="44.53004" lon="6.70231">
        <ele>2005.9</ele>
        <time>2014-05-08T09:57:31Z</time>
      </trkpt>
      <trkpt lat="44.53013" lon="6.7023">
        <ele>2006.9</ele>
        <time>2014-05-08T09:57:39Z</time>
      </trkpt>
      <trkpt lat="44.53022" lon="6.70229">
        <ele>2007.9</ele>
        <time>2014-05-08T09:57:48Z</time>
      </trkpt>
      <trkpt lat="44.53032" lon="6.70226">
        <ele>2009.7</ele>
        <time>2014-05-08T09:57:57Z</time>
      </trkpt>
      <trkpt lat="44.53041" lon="6.70221">
        <ele>2010</ele>
        <time>2014-05-08T09:58:07Z</time>
      </trkpt>
      <trkpt lat="44.53056" lon="6.70205">
        <ele>2012.1</ele>
        <time>2014-05-08T09:58:27Z</time>
      </trkpt>
      <trkpt lat="44.53066" lon="6.70202">
        <ele>2012.6</ele>
        <time>2014-05-08T09:58:37Z</time>
      </trkpt>
      <trkpt lat="44.53075" lon="6.70206">
        <ele>2013.4</ele>
        <time>2014-05-08T09:58:48Z</time>
      </trkpt>
      <trkpt lat="44.53085" lon="6.70209">
        <ele>2013.7</ele>
        <time>2014-05-08T09:58:57Z</time>
      </trkpt>
      <trkpt lat="44.53094" lon="6.70211">
        <ele>2014.8</ele>
        <time>2014-05-08T09:59:05Z</time>
      </trkpt>
      <trkpt lat="44.53104" lon="6.70207">
        <ele>2015.3</ele>
        <time>2014-05-08T09:59:13Z</time>
      </trkpt>
      <trkpt lat="44.53121" lon="6.70197">
        <ele>2016.8</ele>
        <time>2014-05-08T09:59:28Z</time>
      </trkpt>
      <trkpt lat="44.53129" lon="6.70189">
        <ele>2018</ele>
        <time>2014-05-08T09:59:37Z</time>
      </trkpt>
      <trkpt lat="44.53136" lon="6.70179">
        <ele>2019.6</ele>
        <time>2014-05-08T09:59:46Z</time>
      </trkpt>
      <trkpt lat="44.53142" lon="6.70169">
        <ele>2020.7</ele>
        <time>2014-05-08T09:59:56Z</time>
      </trkpt>
      <trkpt lat="44.53147" lon="6.70158">
        <ele>2022</ele>
        <time>2014-05-08T10:00:06Z</time>
      </trkpt>
      <trkpt lat="44.53155" lon="6.7015">
        <ele>2022.3</ele>
        <time>2014-05-08T10:00:15Z</time>
      </trkpt>
      <trkpt lat="44.53166" lon="6.70164">
        <ele>2023.4</ele>
        <time>2014-05-08T10:00:34Z</time>
      </trkpt>
      <trkpt lat="44.53166" lon="6.70163">
        <ele>2022.5</ele>
        <time>2014-05-08T10:02:52Z</time>
      </trkpt>
    </trkseg>
  </trk>
</gpx>